Time,TemperatureF,DewpointF,PressureIn,WindDirection,WindDirectionDegrees,WindSpeedMPH,WindSpeedGustMPH,Humidity,HourlyPrecipIn,Conditions,Clouds,dailyrainin,SoftwareType,DateUTC
2013-02-03 00:00:00,33.3,22.8,28.05,NE,45,0.0,0.0,65,0.00,CLR,SKC,0.00,WeatherDisplay:10.37,2013-02-03 05:00:00,
2013-02-03 00:02:00,33.3,22.8,28.05,NE,45,0.0,0.0,65,0.00,CLR,SKC,0.00,WeatherDisplay:10.37,2013-02-03 05:02:00,
2013-02-03 00:05:00,33.3,22.8,28.06,NE,45,0.0,0.0,65,0.00,CLR,SKC,0.00,WeatherDisplay:10.37,2013-02-03 05:05:00,
2013-02-03 00:07:00,33.3,22.8,28.06,NE,45,0.0,0.0,65,0.00,CLR,SKC,0.00,WeatherDisplay:10.37,2013-02-03 05:07:00,
2013-02-03 00:10:00,33.3,22.8,28.06,NE,45,0.0,0.0,65,0.00,CLR,SKC,0.00,WeatherDisplay:10.37,2013-02-03 05:10:00,
2013-02-03 00:11:00,33.3,22.8,28.05,NE,45,0.0,0.0,65,0.00,CLR,SKC,0.00,WeatherDisplay:10.37,2013-02-03 05:11:00,
2013-02-03 00:12:00,33.3,22.8,28.06,NE,45,0.0,0.0,65,0.00,CLR,SKC,0.00,WeatherDisplay:10.37,2013-02-03 05:12:00,
2013-02-03 00:15:00,33.3,22.8,28.06,NE,45,0.0,0.0,65,0.00,CLR,SKC,0.00,WeatherDisplay:10.37,2013-02-03 05:15:00,
2013-02-03 00:16:00,33.3,22.8,28.06,NE,45,0.0,0.0,65,0.00,CLR,SKC,0.00,WeatherDisplay:10.37,2013-02-03 05:16:00,
2013-02-03 00:17:00,33.1,22.6,28.06,NE,45,0.0,0.0,65,0.00,CLR,SKC,0.00,WeatherDisplay:10.37,2013-02-03 05:17:00,
2013-02-03 00:20:00,33.3,22.8,28.06,NE,45,0.0,0.0,65,0.00,CLR,SKC,0.00,WeatherDisplay:10.37,2013-02-03 05:20:00,
2013-02-03 00:21:00,33.3,22.8,28.06,NE,45,0.0,0.0,65,0.00,CLR,SKC,0.00,WeatherDisplay:10.37,2013-02-03 05:21:00,
2013-02-03 00:22:00,33.3,22.8,28.06,NE,45,0.0,0.0,65,0.00,CLR,SKC,0.00,WeatherDisplay:10.37,2013-02-03 05:22:00,
2013-02-03 00:25:00,33.3,22.8,28.06,West,270,0.0,0.0,65,0.00,CLR,SKC,0.00,WeatherDisplay:10.37,2013-02-03 05:25:00,
2013-02-03 00:26:00,33.3,22.8,28.06,West,270,0.0,0.0,65,0.00,CLR,SKC,0.00,WeatherDisplay:10.37,2013-02-03 05:26:00,
2013-02-03 00:27:00,33.3,22.8,28.06,NE,45,0.0,0.0,65,0.00,CLR,SKC,0.00,WeatherDisplay:10.37,2013-02-03 05:27:00,
2013-02-03 00:30:00,33.4,22.9,28.06,SW,225,0.0,0.0,65,0.00,CLR,SKC,0.00,WeatherDisplay:10.37,2013-02-03 05:30:00,
2013-02-03 00:31:00,33.4,22.9,28.06,West,270,0.0,0.0,65,0.00,CLR,SKC,0.00,WeatherDisplay:10.37,2013-02-03 05:31:00,
2013-02-03 00:32:00,33.4,22.9,28.06,West,270,0.0,0.0,65,0.00,CLR,SKC,0.00,WeatherDisplay:10.37,2013-02-03 05:32:00,
2013-02-03 00:36:00,33.6,23.5,28.06,South,180,0.0,0.0,66,0.00,CLR,SKC,0.00,WeatherDisplay:10.37,2013-02-03 05:36:00,
2013-02-03 00:37:00,33.6,23.1,28.07,SE,135,0.0,0.0,65,0.00,CLR,SKC,0.00,WeatherDisplay:10.37,2013-02-03 05:37:00,
2013-02-03 00:41:00,33.6,23.1,28.06,South,180,0.0,0.0,65,0.00,CLR,SKC,0.00,WeatherDisplay:10.37,2013-02-03 05:41:00,
2013-02-03 00:43:00,33.8,23.6,28.06,South,180,0.0,0.0,66,0.00,CLR,SKC,0.00,WeatherDisplay:10.37,2013-02-03 05:43:00,
2013-02-03 00:46:00,33.8,23.6,28.05,SE,135,0.0,0.0,66,0.00,CLR,SKC,0.00,WeatherDisplay:10.37,2013-02-03 05:46:00,
2013-02-03 00:48:00,33.8,23.6,28.06,SE,135,0.0,0.0,66,0.00,CLR,SKC,0.00,WeatherDisplay:10.37,2013-02-03 05:48:00,
2013-02-03 00:51:00,33.8,23.3,28.06,South,180,0.0,0.0,65,0.00,CLR,SKC,0.00,WeatherDisplay:10.37,2013-02-03 05:51:00,
2013-02-03 00:53:00,33.6,23.1,28.06,South,180,0.0,0.0,65,0.00,CLR,SKC,0.00,WeatherDisplay:10.37,2013-02-03 05:53:00,
2013-02-03 00:56:00,33.6,23.1,28.05,SE,135,0.0,0.0,65,0.00,CLR,SKC,0.00,WeatherDisplay:10.37,2013-02-03 05:56:00,
2013-02-03 00:57:00,33.6,23.1,28.05,SE,135,0.0,0.0,65,0.00,CLR,SKC,0.00,WeatherDisplay:10.37,2013-02-03 05:57:00,
2013-02-03 00:58:00,33.6,23.1,28.05,SE,135,0.0,0.0,65,0.00,CLR,SKC,0.00,WeatherDisplay:10.37,2013-02-03 05:58:00,
2013-02-03 01:02:00,33.6,23.1,28.06,SE,135,0.0,0.0,65,0.00,CLR,SKC,0.00,WeatherDisplay:10.37,2013-02-03 06:02:00,
2013-02-03 01:04:00,33.6,23.1,28.06,SE,135,0.0,0.0,65,0.00,CLR,SKC,0.00,WeatherDisplay:10.37,2013-02-03 06:04:00,
2013-02-03 01:07:00,33.6,23.1,28.06,SE,135,0.0,0.0,65,0.00,CLR,SKC,0.00,WeatherDisplay:10.37,2013-02-03 06:07:00,
2013-02-03 01:09:00,33.6,23.1,28.05,South,180,0.0,0.0,65,0.00,CLR,SKC,0.00,WeatherDisplay:10.37,2013-02-03 06:09:00,
2013-02-03 01:12:00,33.4,22.9,28.05,South,180,0.0,0.0,65,0.00,CLR,SKC,0.00,WeatherDisplay:10.37,2013-02-03 06:12:00,
2013-02-03 01:14:00,33.4,22.6,28.06,NE,45,0.0,0.0,64,0.00,CLR,SKC,0.00,WeatherDisplay:10.37,2013-02-03 06:14:00,
2013-02-03 01:17:00,33.3,22.4,28.05,NE,45,0.0,0.0,64,0.00,CLR,SKC,0.00,WeatherDisplay:10.37,2013-02-03 06:17:00,
2013-02-03 01:19:00,33.4,22.6,28.05,NE,45,0.0,0.0,64,0.00,CLR,SKC,0.00,WeatherDisplay:10.37,2013-02-03 06:19:00,
2013-02-03 01:22:00,33.3,22.4,28.05,NE,45,0.0,0.0,64,0.00,CLR,SKC,0.00,WeatherDisplay:10.37,2013-02-03 06:22:00,
2013-02-03 01:24:00,33.4,22.6,28.05,NE,45,0.0,0.0,64,0.00,CLR,SKC,0.00,WeatherDisplay:10.37,2013-02-03 06:24:00,
2013-02-03 01:27:00,33.3,22.4,28.05,NE,45,0.0,0.0,64,0.00,CLR,SKC,0.00,WeatherDisplay:10.37,2013-02-03 06:27:00,
2013-02-03 01:30:00,33.3,22.4,28.05,NE,45,0.0,0.0,64,0.00,CLR,SKC,0.00,WeatherDisplay:10.37,2013-02-03 06:30:00,
2013-02-03 01:32:00,33.3,22.4,28.04,NE,45,0.0,0.0,64,0.00,CLR,SKC,0.00,WeatherDisplay:10.37,2013-02-03 06:32:00,
2013-02-03 01:33:00,33.3,22.4,28.04,NE,45,0.0,0.0,64,0.00,CLR,SKC,0.00,WeatherDisplay:10.37,2013-02-03 06:33:00,
2013-02-03 01:35:00,33.3,22.4,28.04,NE,45,0.0,0.0,64,0.00,CLR,SKC,0.00,WeatherDisplay:10.37,2013-02-03 06:35:00,
2013-02-03 01:37:00,33.3,22.4,28.04,NE,45,0.0,0.0,64,0.00,CLR,SKC,0.00,WeatherDisplay:10.37,2013-02-03 06:37:00,
2013-02-03 01:38:00,33.3,22.4,28.03,NE,45,0.0,0.0,64,0.00,CLR,SKC,0.00,WeatherDisplay:10.37,2013-02-03 06:38:00,
2013-02-03 01:40:00,33.3,22.4,28.04,NE,45,0.0,0.0,64,0.00,CLR,SKC,0.00,WeatherDisplay:10.37,2013-02-03 06:40:00,
2013-02-03 01:42:00,33.3,22.4,28.04,NE,45,0.0,0.0,64,0.00,CLR,SKC,0.00,WeatherDisplay:10.37,2013-02-03 06:42:00,
2013-02-03 01:43:00,33.3,22.4,28.04,NE,45,0.0,0.0,64,0.00,CLR,SKC,0.00,WeatherDisplay:10.37,2013-02-03 06:43:00,
2013-02-03 01:45:00,33.1,22.2,28.04,NE,45,0.0,0.0,64,0.00,CLR,SKC,0.00,WeatherDisplay:10.37,2013-02-03 06:45:00,
2013-02-03 01:48:00,33.1,22.2,28.04,West,270,0.0,0.0,64,0.00,CLR,SKC,0.00,WeatherDisplay:10.37,2013-02-03 06:48:00,
2013-02-03 01:50:00,33.1,22.2,28.03,ENE,68,0.0,0.0,64,0.00,CLR,SKC,0.00,WeatherDisplay:10.37,2013-02-03 06:50:00,
2013-02-03 01:53:00,32.9,22.0,28.03,ENE,68,0.0,0.0,64,0.00,CLR,SKC,0.00,WeatherDisplay:10.37,2013-02-03 06:53:00,
2013-02-03 01:55:00,32.9,22.0,28.03,ENE,68,0.0,0.0,64,0.00,CLR,SKC,0.00,WeatherDisplay:10.37,2013-02-03 06:55:00,
2013-02-03 01:58:00,32.9,22.0,28.04,ENE,68,0.0,0.0,64,0.00,CLR,SKC,0.00,WeatherDisplay:10.37,2013-02-03 06:58:00,
2013-02-03 02:00:00,32.7,21.9,28.03,ENE,68,0.0,0.0,64,0.00,CLR,SKC,0.00,WeatherDisplay:10.37,2013-02-03 07:00:00,
2013-02-03 02:03:00,32.7,21.9,28.03,ENE,68,0.0,0.0,64,0.00,CLR,SKC,0.00,WeatherDisplay:10.37,2013-02-03 07:03:00,
2013-02-03 02:05:00,32.7,21.9,28.04,ENE,68,0.0,0.0,64,0.00,CLR,SKC,0.00,WeatherDisplay:10.37,2013-02-03 07:05:00,
2013-02-03 02:08:00,32.7,21.9,28.03,ENE,68,0.0,0.0,64,0.00,CLR,SKC,0.00,WeatherDisplay:10.37,2013-02-03 07:08:00,
2013-02-03 02:11:00,32.7,21.9,28.03,ENE,68,0.0,0.0,64,0.00,CLR,SKC,0.00,WeatherDisplay:10.37,2013-02-03 07:11:00,
2013-02-03 02:13:00,32.7,21.9,28.04,ENE,68,0.0,0.0,64,0.00,CLR,SKC,0.00,WeatherDisplay:10.37,2013-02-03 07:13:00,
2013-02-03 02:14:00,32.7,21.9,28.04,ENE,68,0.0,0.0,64,0.00,CLR,SKC,0.00,WeatherDisplay:10.37,2013-02-03 07:14:00,
2013-02-03 02:16:00,32.7,21.9,28.03,ENE,68,0.0,0.0,64,0.00,CLR,SKC,0.00,WeatherDisplay:10.37,2013-02-03 07:16:00,
2013-02-03 02:18:00,32.7,21.9,28.03,ENE,68,0.0,0.0,64,0.00,CLR,SKC,0.00,WeatherDisplay:10.37,2013-02-03 07:18:00,
2013-02-03 02:19:00,32.7,21.9,28.03,ENE,68,0.0,0.0,64,0.00,CLR,SKC,0.00,WeatherDisplay:10.37,2013-02-03 07:19:00,
2013-02-03 02:21:00,32.7,21.9,28.04,NW,315,0.0,0.0,64,0.00,CLR,SKC,0.00,WeatherDisplay:10.37,2013-02-03 07:21:00,
2013-02-03 02:23:00,32.7,21.9,28.04,ENE,68,0.0,0.0,64,0.00,CLR,SKC,0.00,WeatherDisplay:10.37,2013-02-03 07:23:00,
2013-02-03 02:24:00,32.7,21.9,28.04,ENE,68,0.0,0.0,64,0.00,CLR,SKC,0.00,WeatherDisplay:10.37,2013-02-03 07:24:00,
2013-02-03 02:26:00,32.7,21.9,28.04,SE,135,0.0,0.0,64,0.00,CLR,SKC,0.00,WeatherDisplay:10.37,2013-02-03 07:26:00,
2013-02-03 02:28:00,32.7,21.9,28.03,SE,135,0.0,0.0,64,0.00,CLR,SKC,0.00,WeatherDisplay:10.37,2013-02-03 07:28:00,
2013-02-03 02:29:00,32.7,21.9,28.03,SE,135,0.0,0.0,64,0.00,CLR,SKC,0.00,WeatherDisplay:10.37,2013-02-03 07:29:00,
2013-02-03 02:31:00,32.7,21.9,28.03,North,0,0.0,0.0,64,0.00,CLR,SKC,0.00,WeatherDisplay:10.37,2013-02-03 07:31:00,
2013-02-03 02:34:00,32.5,21.7,28.03,SE,135,0.0,0.0,64,0.00,CLR,SKC,0.00,WeatherDisplay:10.37,2013-02-03 07:34:00,
2013-02-03 02:35:00,32.5,21.7,28.03,SE,135,0.0,0.0,64,0.00,CLR,SKC,0.00,WeatherDisplay:10.37,2013-02-03 07:35:00,
2013-02-03 02:36:00,32.5,21.7,28.03,SE,135,0.0,0.0,64,0.00,CLR,SKC,0.00,WeatherDisplay:10.37,2013-02-03 07:36:00,
2013-02-03 02:39:00,32.5,21.7,28.03,SE,135,0.0,0.0,64,0.00,CLR,SKC,0.00,WeatherDisplay:10.37,2013-02-03 07:39:00,
2013-02-03 02:40:00,32.5,21.7,28.03,SE,135,0.0,0.0,64,0.00,CLR,SKC,0.00,WeatherDisplay:10.37,2013-02-03 07:40:00,
2013-02-03 02:41:00,32.7,21.9,28.02,SE,135,0.0,0.0,64,0.00,CLR,SKC,0.00,WeatherDisplay:10.37,2013-02-03 07:41:00,
2013-02-03 02:44:00,32.7,21.9,28.03,SE,135,0.0,0.0,64,0.00,CLR,SKC,0.00,WeatherDisplay:10.37,2013-02-03 07:44:00,
2013-02-03 02:45:00,32.7,21.9,28.03,SE,135,0.0,0.0,64,0.00,CLR,SKC,0.00,WeatherDisplay:10.37,2013-02-03 07:45:00,
2013-02-03 02:46:00,32.5,21.7,28.03,SE,135,0.0,0.0,64,0.00,CLR,SKC,0.00,WeatherDisplay:10.37,2013-02-03 07:46:00,
2013-02-03 02:49:00,32.5,21.7,28.03,SE,135,0.0,0.0,64,0.00,CLR,SKC,0.00,WeatherDisplay:10.37,2013-02-03 07:49:00,
2013-02-03 02:50:00,32.5,21.7,28.03,SE,135,0.0,0.0,64,0.00,CLR,SKC,0.00,WeatherDisplay:10.37,2013-02-03 07:50:00,
2013-02-03 02:52:00,32.5,21.7,28.03,SE,135,0.0,0.0,64,0.00,CLR,SKC,0.00,WeatherDisplay:10.37,2013-02-03 07:52:00,
2013-02-03 02:54:00,32.5,21.3,28.03,SE,135,0.0,0.0,63,0.00,CLR,SKC,0.00,WeatherDisplay:10.37,2013-02-03 07:54:00,
2013-02-03 02:55:00,32.5,21.3,28.03,SE,135,0.0,0.0,63,0.00,CLR,SKC,0.00,WeatherDisplay:10.37,2013-02-03 07:55:00,
2013-02-03 02:57:00,32.4,21.5,28.03,SE,135,0.0,0.0,64,0.00,CLR,SKC,0.00,WeatherDisplay:10.37,2013-02-03 07:57:00,
2013-02-03 02:59:00,32.4,21.5,28.03,SE,135,0.0,0.0,64,0.00,CLR,SKC,0.00,WeatherDisplay:10.37,2013-02-03 07:59:00,
2013-02-03 03:00:00,32.4,21.5,28.03,SE,135,0.0,0.0,64,0.00,CLR,SKC,0.00,WeatherDisplay:10.37,2013-02-03 08:00:00,
2013-02-03 03:01:00,32.4,21.5,28.03,SE,135,0.0,0.0,64,0.00,CLR,SKC,0.00,WeatherDisplay:10.37,2013-02-03 08:01:00,
2013-02-03 03:02:00,32.4,21.5,28.03,SE,135,0.0,0.0,64,0.00,CLR,SKC,0.00,WeatherDisplay:10.37,2013-02-03 08:02:00,
2013-02-03 03:05:00,32.4,21.5,28.03,SE,135,0.0,0.0,64,0.00,CLR,SKC,0.00,WeatherDisplay:10.37,2013-02-03 08:05:00,
2013-02-03 03:06:00,32.4,21.5,28.03,SE,135,0.0,0.0,64,0.00,CLR,SKC,0.00,WeatherDisplay:10.37,2013-02-03 08:06:00,
2013-02-03 03:07:00,32.4,21.5,28.03,SE,135,0.0,0.0,64,0.00,CLR,SKC,0.00,WeatherDisplay:10.37,2013-02-03 08:07:00,
2013-02-03 03:10:00,32.4,21.5,28.03,SE,135,0.0,0.0,64,0.00,CLR,SKC,0.00,WeatherDisplay:10.37,2013-02-03 08:10:00,
2013-02-03 03:11:00,32.4,21.5,28.03,SE,135,0.0,0.0,64,0.00,CLR,SKC,0.00,WeatherDisplay:10.37,2013-02-03 08:11:00,
2013-02-03 03:12:00,32.4,21.5,28.03,SE,135,0.0,0.0,64,0.00,CLR,SKC,0.00,WeatherDisplay:10.37,2013-02-03 08:12:00,
2013-02-03 03:15:00,32.4,21.5,28.03,SE,135,0.0,0.0,64,0.00,CLR,SKC,0.00,WeatherDisplay:10.37,2013-02-03 08:15:00,
2013-02-03 03:16:00,32.4,21.5,28.03,SE,135,0.0,0.0,64,0.00,CLR,SKC,0.00,WeatherDisplay:10.37,2013-02-03 08:16:00,
2013-02-03 03:17:00,32.4,21.5,28.03,SE,135,0.0,0.0,64,0.00,CLR,SKC,0.00,WeatherDisplay:10.37,2013-02-03 08:17:00,
2013-02-03 03:21:00,32.2,21.4,28.03,SE,135,0.0,0.0,64,0.00,CLR,SKC,0.00,WeatherDisplay:10.37,2013-02-03 08:21:00,
2013-02-03 03:22:00,32.2,21.4,28.03,SE,135,0.0,0.0,64,0.00,CLR,SKC,0.00,WeatherDisplay:10.37,2013-02-03 08:22:00,
2013-02-03 03:26:00,32.2,21.4,28.02,SE,135,0.0,0.0,64,0.00,CLR,SKC,0.00,WeatherDisplay:10.37,2013-02-03 08:26:00,
2013-02-03 03:27:00,32.2,21.4,28.03,SE,135,0.0,0.0,64,0.00,CLR,SKC,0.00,WeatherDisplay:10.37,2013-02-03 08:27:00,
2013-02-03 03:31:00,32.4,21.5,28.02,SE,135,0.0,0.0,64,0.00,CLR,SKC,0.00,WeatherDisplay:10.37,2013-02-03 08:31:00,
2013-02-03 03:32:00,32.4,21.5,28.02,SE,135,0.0,0.0,64,0.00,CLR,SKC,0.00,WeatherDisplay:10.37,2013-02-03 08:32:00,
2013-02-03 03:36:00,32.4,21.5,28.02,SE,135,0.0,0.0,64,0.00,CLR,SKC,0.00,WeatherDisplay:10.37,2013-02-03 08:36:00,
2013-02-03 03:38:00,32.2,21.4,28.03,SE,135,0.0,0.0,64,0.00,CLR,SKC,0.00,WeatherDisplay:10.37,2013-02-03 08:38:00,
2013-02-03 03:41:00,32.2,21.4,28.02,SE,135,0.0,0.0,64,0.00,CLR,SKC,0.00,WeatherDisplay:10.37,2013-02-03 08:41:00,
2013-02-03 03:42:00,32.2,21.4,28.02,SE,135,0.0,0.0,64,0.00,CLR,SKC,0.00,WeatherDisplay:10.37,2013-02-03 08:42:00,
2013-02-03 03:43:00,32.2,21.0,28.01,SE,135,0.0,0.0,63,0.00,CLR,SKC,0.00,WeatherDisplay:10.37,2013-02-03 08:43:00,
2013-02-03 03:46:00,32.2,21.4,28.02,SE,135,0.0,0.0,64,0.00,CLR,SKC,0.00,WeatherDisplay:10.37,2013-02-03 08:46:00,
2013-02-03 03:47:00,32.2,21.4,28.02,SE,135,0.0,0.0,64,0.00,CLR,SKC,0.00,WeatherDisplay:10.37,2013-02-03 08:47:00,
2013-02-03 03:48:00,32.0,20.8,28.02,SE,135,0.0,0.0,63,0.00,CLR,SKC,0.00,WeatherDisplay:10.37,2013-02-03 08:48:00,
2013-02-03 03:51:00,32.0,20.8,28.02,SE,135,0.0,0.0,63,0.00,CLR,SKC,0.00,WeatherDisplay:10.37,2013-02-03 08:51:00,
2013-02-03 03:52:00,31.8,20.6,28.02,SE,135,0.0,0.0,63,0.00,CLR,SKC,0.00,WeatherDisplay:10.37,2013-02-03 08:52:00,
2013-02-03 03:53:00,31.5,20.3,28.02,SE,135,0.0,0.0,63,0.00,CLR,SKC,0.00,WeatherDisplay:10.37,2013-02-03 08:53:00,
2013-02-03 03:57:00,31.5,20.3,28.02,SE,135,0.0,0.0,63,0.00,CLR,SKC,0.00,WeatherDisplay:10.37,2013-02-03 08:57:00,
2013-02-03 03:58:00,31.5,20.3,28.02,SE,135,0.0,0.0,63,0.00,CLR,SKC,0.00,WeatherDisplay:10.37,2013-02-03 08:58:00,
2013-02-03 04:02:00,31.5,20.3,28.02,SE,135,0.0,0.0,63,0.00,CLR,SKC,0.00,WeatherDisplay:10.37,2013-02-03 09:02:00,
2013-02-03 04:03:00,31.5,20.3,28.02,SE,135,0.0,0.0,63,0.00,CLR,SKC,0.00,WeatherDisplay:10.37,2013-02-03 09:03:00,
2013-02-03 04:07:00,31.5,20.3,28.01,SE,135,0.0,0.0,63,0.00,CLR,SKC,0.00,WeatherDisplay:10.37,2013-02-03 09:07:00,
2013-02-03 04:08:00,31.8,21.0,28.02,SE,135,0.0,0.0,64,0.00,CLR,SKC,0.00,WeatherDisplay:10.37,2013-02-03 09:08:00,
2013-02-03 04:09:00,31.8,20.6,28.02,SE,135,0.0,0.0,63,0.00,CLR,SKC,0.00,WeatherDisplay:10.37,2013-02-03 09:09:00,
2013-02-03 04:12:00,31.8,21.0,28.02,SE,135,0.0,0.0,64,0.00,CLR,SKC,0.00,WeatherDisplay:10.37,2013-02-03 09:12:00,
2013-02-03 04:13:00,31.8,21.0,28.01,SE,135,0.0,0.0,64,0.00,CLR,SKC,0.00,WeatherDisplay:10.37,2013-02-03 09:13:00,
2013-02-03 04:14:00,31.8,21.0,28.02,SE,135,0.0,0.0,64,0.00,CLR,SKC,0.00,WeatherDisplay:10.37,2013-02-03 09:14:00,
2013-02-03 04:17:00,31.8,21.0,28.01,SE,135,0.0,0.0,64,0.00,CLR,SKC,0.00,WeatherDisplay:10.37,2013-02-03 09:17:00,
2013-02-03 04:18:00,31.8,21.0,28.02,SE,135,0.0,0.0,64,0.00,CLR,SKC,0.00,WeatherDisplay:10.37,2013-02-03 09:18:00,
2013-02-03 04:19:00,31.8,21.0,28.02,SE,135,0.0,0.0,64,0.00,CLR,SKC,0.00,WeatherDisplay:10.37,2013-02-03 09:19:00,
2013-02-03 04:22:00,31.8,21.0,28.01,SE,135,0.0,0.0,64,0.00,CLR,SKC,0.00,WeatherDisplay:10.37,2013-02-03 09:22:00,
2013-02-03 04:23:00,31.8,21.0,28.01,SE,135,0.0,0.0,64,0.00,CLR,SKC,0.00,WeatherDisplay:10.37,2013-02-03 09:23:00,
2013-02-03 04:24:00,31.8,21.0,28.02,SE,135,0.0,0.0,64,0.00,CLR,SKC,0.00,WeatherDisplay:10.37,2013-02-03 09:24:00,
2013-02-03 04:28:00,31.8,21.0,28.01,SE,135,0.0,0.0,64,0.00,CLR,SKC,0.00,WeatherDisplay:10.37,2013-02-03 09:28:00,
2013-02-03 04:30:00,31.8,21.0,28.01,SE,135,0.0,0.0,64,0.00,CLR,SKC,0.00,WeatherDisplay:10.37,2013-02-03 09:30:00,
2013-02-03 04:33:00,31.8,21.0,28.01,SE,135,0.0,0.0,64,0.00,CLR,SKC,0.00,WeatherDisplay:10.37,2013-02-03 09:33:00,
2013-02-03 04:34:00,31.8,20.6,28.01,SE,135,0.0,0.0,63,0.00,CLR,SKC,0.00,WeatherDisplay:10.37,2013-02-03 09:34:00,
2013-02-03 04:35:00,31.8,20.6,28.01,SE,135,0.0,0.0,63,0.00,CLR,SKC,0.00,WeatherDisplay:10.37,2013-02-03 09:35:00,
2013-02-03 04:38:00,31.8,21.0,28.01,SE,135,0.0,0.0,64,0.00,CLR,SKC,0.00,WeatherDisplay:10.37,2013-02-03 09:38:00,
2013-02-03 04:39:00,31.8,21.0,28.01,SE,135,0.0,0.0,64,0.00,CLR,SKC,0.00,WeatherDisplay:10.37,2013-02-03 09:39:00,
2013-02-03 04:40:00,31.8,21.0,28.01,SE,135,0.0,0.0,64,0.00,CLR,SKC,0.00,WeatherDisplay:10.37,2013-02-03 09:40:00,
2013-02-03 04:43:00,31.8,21.0,28.00,SE,135,0.0,0.0,64,0.00,CLR,SKC,0.00,WeatherDisplay:10.37,2013-02-03 09:43:00,
2013-02-03 04:44:00,31.5,20.7,28.01,SE,135,0.0,0.0,64,0.00,CLR,SKC,0.00,WeatherDisplay:10.37,2013-02-03 09:44:00,
2013-02-03 04:45:00,31.3,20.5,28.00,SE,135,0.0,0.0,64,0.00,CLR,SKC,0.00,WeatherDisplay:10.37,2013-02-03 09:45:00,
2013-02-03 04:48:00,31.5,20.7,28.01,SE,135,0.0,0.0,64,0.00,CLR,SKC,0.00,WeatherDisplay:10.37,2013-02-03 09:48:00,
2013-02-03 04:49:00,31.5,20.7,28.01,SE,135,0.0,0.0,64,0.00,CLR,SKC,0.00,WeatherDisplay:10.37,2013-02-03 09:49:00,
2013-02-03 04:50:00,31.5,20.3,28.01,SE,135,0.0,0.0,63,0.00,CLR,SKC,0.00,WeatherDisplay:10.37,2013-02-03 09:50:00,
2013-02-03 04:54:00,31.3,20.5,28.01,SE,135,0.0,0.0,64,0.00,CLR,SKC,0.00,WeatherDisplay:10.37,2013-02-03 09:54:00,
2013-02-03 04:55:00,31.3,20.5,28.01,SE,135,0.0,0.0,64,0.00,CLR,SKC,0.00,WeatherDisplay:10.37,2013-02-03 09:55:00,
2013-02-03 04:59:00,31.1,20.3,28.01,SE,135,0.0,0.0,64,0.00,CLR,SKC,0.00,WeatherDisplay:10.37,2013-02-03 09:59:00,
2013-02-03 05:00:00,31.1,20.3,28.01,SE,135,0.0,0.0,64,0.00,CLR,SKC,0.00,WeatherDisplay:10.37,2013-02-03 10:00:00,
2013-02-03 05:04:00,31.1,20.3,28.01,SE,135,0.0,0.0,64,0.00,CLR,SKC,0.00,WeatherDisplay:10.37,2013-02-03 10:04:00,
2013-02-03 05:06:00,31.1,20.3,28.01,SE,135,0.0,0.0,64,0.00,CLR,SKC,0.00,WeatherDisplay:10.37,2013-02-03 10:06:00,
2013-02-03 05:09:00,30.9,20.2,28.01,SE,135,0.0,0.0,64,0.00,CLR,SKC,0.00,WeatherDisplay:10.37,2013-02-03 10:09:00,
2013-02-03 05:10:00,30.9,20.2,28.01,SE,135,0.0,0.0,64,0.00,CLR,SKC,0.00,WeatherDisplay:10.37,2013-02-03 10:10:00,
2013-02-03 05:11:00,30.9,20.2,28.01,SE,135,0.0,0.0,64,0.00,CLR,SKC,0.00,WeatherDisplay:10.37,2013-02-03 10:11:00,
2013-02-03 05:14:00,30.7,19.6,28.01,ENE,68,0.0,0.0,63,0.00,CLR,SKC,0.00,WeatherDisplay:10.37,2013-02-03 10:14:00,
2013-02-03 05:15:00,30.7,20.0,28.00,ENE,68,0.0,0.0,64,0.00,CLR,SKC,0.00,WeatherDisplay:10.37,2013-02-03 10:15:00,
2013-02-03 05:16:00,30.6,19.5,28.01,ENE,68,0.0,0.0,63,0.00,CLR,SKC,0.00,WeatherDisplay:10.37,2013-02-03 10:16:00,
2013-02-03 05:19:00,30.6,19.8,28.01,ENE,68,0.0,0.0,64,0.00,CLR,SKC,0.00,WeatherDisplay:10.37,2013-02-03 10:19:00,
2013-02-03 05:20:00,30.6,19.8,28.01,ENE,68,0.0,0.0,64,0.00,CLR,SKC,0.00,WeatherDisplay:10.37,2013-02-03 10:20:00,
2013-02-03 05:21:00,30.6,19.8,28.01,ENE,68,0.0,0.0,64,0.00,CLR,SKC,0.00,WeatherDisplay:10.37,2013-02-03 10:21:00,
2013-02-03 05:25:00,30.6,19.8,28.00,ENE,68,0.0,0.0,64,0.00,CLR,SKC,0.00,WeatherDisplay:10.37,2013-02-03 10:25:00,
2013-02-03 05:26:00,30.6,19.8,28.01,ENE,68,0.0,0.0,64,0.00,CLR,SKC,0.00,WeatherDisplay:10.37,2013-02-03 10:26:00,
2013-02-03 05:30:00,30.6,19.8,28.00,ENE,68,0.0,0.0,64,0.00,CLR,SKC,0.00,WeatherDisplay:10.37,2013-02-03 10:30:00,
2013-02-03 05:31:00,30.6,19.8,28.00,ENE,68,0.0,0.0,64,0.00,CLR,SKC,0.00,WeatherDisplay:10.37,2013-02-03 10:31:00,
2013-02-03 05:35:00,30.6,19.8,28.00,ENE,68,0.0,0.0,64,0.00,CLR,SKC,0.00,WeatherDisplay:10.37,2013-02-03 10:35:00,
2013-02-03 05:36:00,30.6,19.8,28.00,ENE,68,0.0,0.0,64,0.00,CLR,SKC,0.00,WeatherDisplay:10.37,2013-02-03 10:36:00,
2013-02-03 05:37:00,30.6,19.8,28.00,ENE,68,0.0,0.0,64,0.00,CLR,SKC,0.00,WeatherDisplay:10.37,2013-02-03 10:37:00,
2013-02-03 05:40:00,30.4,19.6,28.00,ENE,68,0.0,0.0,64,0.00,CLR,SKC,0.00,WeatherDisplay:10.37,2013-02-03 10:40:00,
2013-02-03 05:41:00,30.4,19.6,28.00,ENE,68,0.0,0.0,64,0.00,CLR,SKC,0.00,WeatherDisplay:10.37,2013-02-03 10:41:00,
2013-02-03 05:42:00,30.4,19.6,28.00,ENE,68,0.0,0.0,64,0.00,CLR,SKC,0.00,WeatherDisplay:10.37,2013-02-03 10:42:00,
2013-02-03 05:45:00,30.6,19.8,28.00,ENE,68,0.0,0.0,64,0.00,CLR,SKC,0.00,WeatherDisplay:10.37,2013-02-03 10:45:00,
2013-02-03 05:46:00,30.4,19.6,28.00,ENE,68,0.0,0.0,64,0.00,CLR,SKC,0.00,WeatherDisplay:10.37,2013-02-03 10:46:00,
2013-02-03 05:47:00,30.4,19.6,28.01,ENE,68,0.0,0.0,64,0.00,CLR,SKC,0.00,WeatherDisplay:10.37,2013-02-03 10:47:00,
2013-02-03 05:50:00,30.2,19.5,28.00,East,90,0.0,0.0,64,0.00,CLR,SKC,0.00,WeatherDisplay:10.37,2013-02-03 10:50:00,
2013-02-03 05:51:00,30.2,19.5,28.01,ENE,68,0.0,0.0,64,0.00,CLR,SKC,0.00,WeatherDisplay:10.37,2013-02-03 10:51:00,
2013-02-03 05:52:00,30.2,19.5,28.01,ENE,68,0.0,0.0,64,0.00,CLR,SKC,0.00,WeatherDisplay:10.37,2013-02-03 10:52:00,
2013-02-03 05:53:00,30.2,19.5,28.01,ENE,68,0.0,0.0,64,0.00,CLR,SKC,0.00,WeatherDisplay:10.37,2013-02-03 10:53:00,
2013-02-03 05:55:00,30.0,19.3,28.01,ENE,68,0.0,0.0,64,0.00,CLR,SKC,0.00,WeatherDisplay:10.37,2013-02-03 10:55:00,
2013-02-03 05:56:00,30.0,19.3,28.01,ENE,68,0.0,0.0,64,0.00,CLR,SKC,0.00,WeatherDisplay:10.37,2013-02-03 10:56:00,
2013-02-03 05:57:00,30.0,19.3,28.01,ENE,68,0.0,0.0,64,0.00,CLR,SKC,0.00,WeatherDisplay:10.37,2013-02-03 10:57:00,
2013-02-03 05:58:00,30.0,19.3,28.01,ENE,68,0.0,0.0,64,0.00,CLR,SKC,0.00,WeatherDisplay:10.37,2013-02-03 10:58:00,
2013-02-03 06:00:00,30.0,19.3,28.00,ENE,68,0.0,0.0,64,0.00,CLR,SKC,0.00,WeatherDisplay:10.37,2013-02-03 11:00:00,
2013-02-03 06:01:00,30.0,19.3,28.00,ENE,68,0.0,0.0,64,0.00,CLR,SKC,0.00,WeatherDisplay:10.37,2013-02-03 11:01:00,
2013-02-03 06:03:00,30.0,19.3,28.00,ENE,68,0.0,0.0,64,0.00,CLR,SKC,0.00,WeatherDisplay:10.37,2013-02-03 11:03:00,
2013-02-03 06:05:00,30.0,19.3,28.00,ENE,68,0.0,0.0,64,0.00,CLR,SKC,0.00,WeatherDisplay:10.37,2013-02-03 11:05:00,
2013-02-03 06:06:00,29.8,19.1,27.99,ENE,68,0.0,0.0,64,0.00,CLR,SKC,0.00,WeatherDisplay:10.37,2013-02-03 11:06:00,
2013-02-03 06:08:00,30.0,19.3,27.99,ENE,68,0.0,0.0,64,0.00,CLR,SKC,0.00,WeatherDisplay:10.37,2013-02-03 11:08:00,
2013-02-03 06:11:00,30.0,19.3,28.00,ENE,68,0.0,0.0,64,0.00,CLR,SKC,0.00,WeatherDisplay:10.37,2013-02-03 11:11:00,
2013-02-03 06:13:00,30.0,19.3,28.00,ENE,68,0.0,0.0,64,0.00,CLR,SKC,0.00,WeatherDisplay:10.37,2013-02-03 11:13:00,
2013-02-03 06:16:00,30.0,19.3,28.00,ENE,68,0.0,0.0,64,0.00,CLR,SKC,0.00,WeatherDisplay:10.37,2013-02-03 11:16:00,
2013-02-03 06:18:00,30.2,19.8,27.99,ENE,68,0.0,0.0,65,0.00,CLR,SKC,0.00,WeatherDisplay:10.37,2013-02-03 11:18:00,
2013-02-03 06:21:00,30.2,19.8,27.99,ENE,68,0.0,0.0,65,0.00,CLR,SKC,0.00,WeatherDisplay:10.37,2013-02-03 11:21:00,
2013-02-03 06:22:00,30.2,19.8,27.99,ENE,68,0.0,0.0,65,0.00,CLR,SKC,0.00,WeatherDisplay:10.37,2013-02-03 11:22:00,
2013-02-03 06:23:00,30.2,19.8,27.99,ENE,68,0.0,0.0,65,0.00,CLR,SKC,0.00,WeatherDisplay:10.37,2013-02-03 11:23:00,
2013-02-03 06:26:00,30.2,19.8,27.99,ENE,68,0.0,0.0,65,0.00,CLR,SKC,0.00,WeatherDisplay:10.37,2013-02-03 11:26:00,
2013-02-03 06:27:00,30.2,19.8,27.99,ENE,68,0.0,0.0,65,0.00,CLR,SKC,0.00,WeatherDisplay:10.37,2013-02-03 11:27:00,
2013-02-03 06:28:00,30.2,19.8,28.00,ENE,68,0.0,0.0,65,0.00,CLR,SKC,0.00,WeatherDisplay:10.37,2013-02-03 11:28:00,
2013-02-03 06:31:00,30.2,19.8,27.99,ENE,68,0.0,0.0,65,0.00,CLR,SKC,0.00,WeatherDisplay:10.37,2013-02-03 11:31:00,
2013-02-03 06:32:00,30.2,19.8,27.99,ENE,68,0.0,0.0,65,0.00,CLR,SKC,0.00,WeatherDisplay:10.37,2013-02-03 11:32:00,
2013-02-03 06:33:00,30.2,19.8,27.99,ENE,68,0.0,0.0,65,0.00,CLR,SKC,0.00,WeatherDisplay:10.37,2013-02-03 11:33:00,
2013-02-03 06:37:00,30.4,20.0,27.99,ENE,68,0.0,0.0,65,0.00,CLR,SKC,0.00,WeatherDisplay:10.37,2013-02-03 11:37:00,
2013-02-03 06:38:00,30.4,20.0,27.98,ENE,68,0.0,0.0,65,0.00,CLR,SKC,0.00,WeatherDisplay:10.37,2013-02-03 11:38:00,
2013-02-03 06:39:00,30.4,20.0,27.98,ENE,68,0.0,0.0,65,0.00,CLR,SKC,0.00,WeatherDisplay:10.37,2013-02-03 11:39:00,
2013-02-03 06:42:00,30.4,20.0,27.98,ENE,68,0.0,0.0,65,0.00,CLR,SKC,0.00,WeatherDisplay:10.37,2013-02-03 11:42:00,
2013-02-03 06:44:00,30.4,20.0,27.99,ENE,68,0.0,0.0,65,0.00,CLR,SKC,0.00,WeatherDisplay:10.37,2013-02-03 11:44:00,
2013-02-03 06:47:00,30.4,20.0,27.98,ENE,68,0.0,0.0,65,0.00,CLR,SKC,0.00,WeatherDisplay:10.37,2013-02-03 11:47:00,
2013-02-03 06:49:00,30.2,19.8,27.98,ENE,68,0.0,0.0,65,0.00,CLR,SKC,0.00,WeatherDisplay:10.37,2013-02-03 11:49:00,
2013-02-03 06:52:00,30.0,19.7,27.99,ENE,68,0.0,0.0,65,0.00,CLR,SKC,0.00,WeatherDisplay:10.37,2013-02-03 11:52:00,
2013-02-03 06:53:00,30.0,19.7,27.99,ENE,68,0.0,0.0,65,0.00,CLR,SKC,0.00,WeatherDisplay:10.37,2013-02-03 11:53:00,
2013-02-03 06:54:00,30.0,19.7,27.99,ENE,68,0.0,0.0,65,0.00,CLR,SKC,0.00,WeatherDisplay:10.37,2013-02-03 11:54:00,
2013-02-03 06:57:00,30.0,19.7,27.99,ENE,68,0.0,0.0,65,0.00,CLR,SKC,0.00,WeatherDisplay:10.37,2013-02-03 11:57:00,
2013-02-03 06:58:00,30.0,19.7,27.99,ENE,68,0.0,0.0,65,0.00,CLR,SKC,0.00,WeatherDisplay:10.37,2013-02-03 11:58:00,
2013-02-03 06:59:00,30.0,19.7,27.99,ENE,68,0.0,0.0,65,0.00,CLR,SKC,0.00,WeatherDisplay:10.37,2013-02-03 11:59:00,
2013-02-03 07:00:00,30.0,19.7,27.99,ENE,68,0.0,0.0,65,0.00,CLR,SKC,0.00,WeatherDisplay:10.37,2013-02-03 12:00:00,
2013-02-03 07:03:00,30.0,19.7,27.98,ENE,68,0.0,0.0,65,0.00,CLR,SKC,0.00,WeatherDisplay:10.37,2013-02-03 12:03:00,
2013-02-03 07:04:00,30.0,19.7,27.98,ENE,68,0.0,0.0,65,0.00,CLR,SKC,0.00,WeatherDisplay:10.37,2013-02-03 12:04:00,
2013-02-03 07:05:00,30.0,19.7,27.98,ENE,68,0.0,0.0,65,0.00,CLR,SKC,0.00,WeatherDisplay:10.37,2013-02-03 12:05:00,
2013-02-03 07:08:00,29.8,19.5,27.99,North,0,0.0,0.0,65,0.00,CLR,SKC,0.00,WeatherDisplay:10.37,2013-02-03 12:08:00,
2013-02-03 07:09:00,30.0,19.7,27.98,North,0,0.0,0.0,65,0.00,CLR,SKC,0.00,WeatherDisplay:10.37,2013-02-03 12:09:00,
2013-02-03 07:10:00,30.0,19.7,27.98,North,0,0.0,0.0,65,0.00,CLR,SKC,0.00,WeatherDisplay:10.37,2013-02-03 12:10:00,
2013-02-03 07:13:00,30.0,19.7,27.98,North,0,0.0,0.0,65,0.00,CLR,SKC,0.00,WeatherDisplay:10.37,2013-02-03 12:13:00,
2013-02-03 07:14:00,30.2,19.8,27.97,North,0,0.0,0.0,65,0.00,CLR,SKC,0.00,WeatherDisplay:10.37,2013-02-03 12:14:00,
2013-02-03 07:15:00,30.2,19.8,27.97,North,0,0.0,0.0,65,0.00,CLR,SKC,0.00,WeatherDisplay:10.37,2013-02-03 12:15:00,
2013-02-03 07:18:00,31.8,21.4,27.98,North,0,0.0,0.0,65,0.00,CLR,SKC,0.00,WeatherDisplay:10.37,2013-02-03 12:18:00,
2013-02-03 07:19:00,29.8,19.5,27.98,North,0,0.0,0.0,65,0.00,CLR,SKC,0.00,WeatherDisplay:10.37,2013-02-03 12:19:00,
2013-02-03 07:20:00,31.8,21.4,27.98,North,0,0.0,0.0,65,0.00,CLR,SKC,0.00,WeatherDisplay:10.37,2013-02-03 12:20:00,
2013-02-03 07:23:00,30.0,19.7,27.98,North,0,0.0,0.0,65,0.00,CLR,SKC,0.00,WeatherDisplay:10.37,2013-02-03 12:23:00,
2013-02-03 07:24:00,30.0,20.0,27.99,North,0,0.0,0.0,66,0.00,CLR,SKC,0.00,WeatherDisplay:10.37,2013-02-03 12:24:00,
2013-02-03 07:25:00,30.0,20.0,27.98,North,0,0.0,0.0,66,0.00,CLR,SKC,0.00,WeatherDisplay:10.37,2013-02-03 12:25:00,
2013-02-03 07:28:00,30.4,20.4,27.98,North,0,0.0,0.0,66,0.00,CLR,SKC,0.00,WeatherDisplay:10.37,2013-02-03 12:28:00,
2013-02-03 07:29:00,30.4,20.4,27.98,North,0,0.0,0.0,66,0.00,CLR,SKC,0.00,WeatherDisplay:10.37,2013-02-03 12:29:00,
2013-02-03 07:30:00,30.4,20.4,27.98,North,0,0.0,0.0,66,0.00,CLR,SKC,0.00,WeatherDisplay:10.37,2013-02-03 12:30:00,
2013-02-03 07:33:00,30.6,20.5,27.99,North,0,0.0,0.0,66,0.00,CLR,SKC,0.00,WeatherDisplay:10.37,2013-02-03 12:33:00,
2013-02-03 07:35:00,30.6,20.5,27.99,North,0,0.0,0.0,66,0.00,CLR,SKC,0.00,WeatherDisplay:10.37,2013-02-03 12:35:00,
2013-02-03 07:38:00,30.7,20.7,27.99,North,0,0.0,0.0,66,0.00,CLR,SKC,0.00,WeatherDisplay:10.37,2013-02-03 12:38:00,
2013-02-03 07:40:00,30.9,20.9,27.98,North,0,0.0,0.0,66,0.00,CLR,SKC,0.00,WeatherDisplay:10.37,2013-02-03 12:40:00,
2013-02-03 07:43:00,30.9,20.9,27.98,North,0,0.0,0.0,66,0.00,CLR,SKC,0.00,WeatherDisplay:10.37,2013-02-03 12:43:00,
2013-02-03 07:44:00,30.9,20.9,27.99,North,0,0.0,0.0,66,0.00,CLR,SKC,0.00,WeatherDisplay:10.37,2013-02-03 12:44:00,
2013-02-03 07:45:00,30.9,20.9,27.98,North,0,0.0,0.0,66,0.00,CLR,SKC,0.00,WeatherDisplay:10.37,2013-02-03 12:45:00,
2013-02-03 07:46:00,30.9,20.9,27.99,North,0,0.0,0.0,66,0.00,CLR,SKC,0.00,WeatherDisplay:10.37,2013-02-03 12:46:00,
2013-02-03 07:48:00,31.1,21.1,27.99,North,0,0.0,0.0,66,0.00,CLR,SKC,0.00,WeatherDisplay:10.37,2013-02-03 12:48:00,
2013-02-03 07:49:00,31.1,21.1,27.99,North,0,0.0,0.0,66,0.00,CLR,SKC,0.00,WeatherDisplay:10.37,2013-02-03 12:49:00,
2013-02-03 07:50:00,31.1,21.1,27.99,North,0,0.0,0.0,66,0.00,CLR,SKC,0.00,WeatherDisplay:10.37,2013-02-03 12:50:00,
2013-02-03 07:51:00,31.1,21.1,27.99,North,0,0.0,0.0,66,0.00,CLR,SKC,0.00,WeatherDisplay:10.37,2013-02-03 12:51:00,
2013-02-03 07:53:00,31.1,21.1,27.99,North,0,0.0,0.0,66,0.00,CLR,SKC,0.00,WeatherDisplay:10.37,2013-02-03 12:53:00,
2013-02-03 07:54:00,31.1,21.1,27.99,North,0,0.0,0.0,66,0.00,CLR,SKC,0.00,WeatherDisplay:10.37,2013-02-03 12:54:00,
2013-02-03 07:55:00,31.1,21.1,27.99,North,0,0.0,0.0,66,0.00,CLR,SKC,0.00,WeatherDisplay:10.37,2013-02-03 12:55:00,
2013-02-03 07:56:00,31.1,21.1,27.99,North,0,0.0,0.0,66,0.00,CLR,SKC,0.00,WeatherDisplay:10.37,2013-02-03 12:56:00,
2013-02-03 07:58:00,31.1,21.1,27.99,North,0,0.0,0.0,66,0.00,CLR,SKC,0.00,WeatherDisplay:10.37,2013-02-03 12:58:00,
2013-02-03 07:59:00,31.1,21.1,27.99,North,0,0.0,0.0,66,0.00,CLR,SKC,0.00,WeatherDisplay:10.37,2013-02-03 12:59:00,
2013-02-03 08:01:00,31.1,21.1,27.99,North,0,0.0,0.0,66,0.00,CLR,SKC,0.00,WeatherDisplay:10.37,2013-02-03 13:01:00,
2013-02-03 08:04:00,31.1,21.1,27.99,North,0,0.0,0.0,66,0.00,CLR,SKC,0.00,WeatherDisplay:10.37,2013-02-03 13:04:00,
2013-02-03 08:06:00,31.3,21.2,27.99,North,0,0.0,0.0,66,0.00,CLR,SKC,0.00,WeatherDisplay:10.37,2013-02-03 13:06:00,
2013-02-03 08:07:00,31.3,21.2,27.99,North,0,0.0,0.0,66,0.00,CLR,SKC,0.00,WeatherDisplay:10.37,2013-02-03 13:07:00,
2013-02-03 08:09:00,31.3,21.2,28.00,North,0,0.0,0.0,66,0.00,CLR,SKC,0.00,WeatherDisplay:10.37,2013-02-03 13:09:00,
2013-02-03 08:10:00,31.3,21.2,27.99,North,0,0.0,0.0,66,0.00,CLR,SKC,0.00,WeatherDisplay:10.37,2013-02-03 13:10:00,
2013-02-03 08:11:00,31.3,21.2,27.99,North,0,0.0,0.0,66,0.00,CLR,SKC,0.00,WeatherDisplay:10.37,2013-02-03 13:11:00,
2013-02-03 08:12:00,31.5,21.4,27.99,North,0,0.0,0.0,66,0.00,CLR,SKC,0.00,WeatherDisplay:10.37,2013-02-03 13:12:00,
2013-02-03 08:14:00,31.5,21.4,27.99,North,0,0.0,0.0,66,0.00,CLR,SKC,0.00,WeatherDisplay:10.37,2013-02-03 13:14:00,
2013-02-03 08:15:00,31.5,21.4,27.99,North,0,0.0,0.0,66,0.00,CLR,SKC,0.00,WeatherDisplay:10.37,2013-02-03 13:15:00,
2013-02-03 08:16:00,31.5,21.4,27.99,North,0,0.0,0.0,66,0.00,CLR,SKC,0.00,WeatherDisplay:10.37,2013-02-03 13:16:00,
2013-02-03 08:17:00,31.5,21.4,27.99,North,0,0.0,0.0,66,0.00,CLR,SKC,0.00,WeatherDisplay:10.37,2013-02-03 13:17:00,
2013-02-03 08:20:00,31.5,21.4,27.99,North,0,0.0,0.0,66,0.00,CLR,SKC,0.00,WeatherDisplay:10.37,2013-02-03 13:20:00,
2013-02-03 08:21:00,31.5,21.4,28.00,North,0,0.0,0.0,66,0.00,CLR,SKC,0.00,WeatherDisplay:10.37,2013-02-03 13:21:00,
2013-02-03 08:22:00,31.5,21.4,27.99,North,0,0.0,0.0,66,0.00,CLR,SKC,0.00,WeatherDisplay:10.37,2013-02-03 13:22:00,
2013-02-03 08:25:00,31.6,21.9,27.99,North,0,0.0,0.0,67,0.00,CLR,SKC,0.00,WeatherDisplay:10.37,2013-02-03 13:25:00,
2013-02-03 08:26:00,31.6,21.6,27.99,North,0,0.0,0.0,66,0.00,CLR,SKC,0.00,WeatherDisplay:10.37,2013-02-03 13:26:00,
2013-02-03 08:27:00,31.8,21.7,28.00,North,0,0.0,0.0,66,0.00,CLR,SKC,0.00,WeatherDisplay:10.37,2013-02-03 13:27:00,
2013-02-03 08:30:00,31.8,22.1,27.99,North,0,0.0,0.0,67,0.00,CLR,SKC,0.00,WeatherDisplay:10.37,2013-02-03 13:30:00,
2013-02-03 08:31:00,31.8,21.7,27.99,North,0,0.0,0.0,66,0.00,CLR,SKC,0.00,WeatherDisplay:10.37,2013-02-03 13:31:00,
2013-02-03 08:32:00,32.0,21.9,27.99,North,0,0.0,0.0,66,0.00,CLR,SKC,0.00,WeatherDisplay:10.37,2013-02-03 13:32:00,
2013-02-03 08:35:00,31.8,22.1,27.99,North,0,0.0,0.0,67,0.00,CLR,SKC,0.00,WeatherDisplay:10.37,2013-02-03 13:35:00,
2013-02-03 08:36:00,32.0,21.9,27.99,North,0,0.0,0.0,66,0.00,CLR,SKC,0.00,WeatherDisplay:10.37,2013-02-03 13:36:00,
2013-02-03 08:37:00,32.0,21.9,27.99,North,0,0.0,0.0,66,0.00,CLR,SKC,0.00,WeatherDisplay:10.37,2013-02-03 13:37:00,
2013-02-03 08:40:00,32.0,22.3,27.99,North,0,0.0,0.0,67,0.00,CLR,SKC,0.00,WeatherDisplay:10.37,2013-02-03 13:40:00,
2013-02-03 08:41:00,32.2,22.1,27.99,North,0,0.0,0.0,66,0.00,CLR,SKC,0.00,WeatherDisplay:10.37,2013-02-03 13:41:00,
2013-02-03 08:43:00,32.2,22.1,27.99,North,0,0.0,0.0,66,0.00,CLR,SKC,0.00,WeatherDisplay:10.37,2013-02-03 13:43:00,
2013-02-03 08:46:00,32.2,22.4,28.00,North,0,0.0,0.0,67,0.00,CLR,SKC,0.00,WeatherDisplay:10.37,2013-02-03 13:46:00,
2013-02-03 08:47:00,32.4,22.6,27.99,North,0,0.0,0.0,67,0.00,CLR,SKC,0.00,WeatherDisplay:10.37,2013-02-03 13:47:00,
2013-02-03 08:48:00,32.4,22.6,27.99,North,0,0.0,0.0,67,0.00,CLR,SKC,0.00,WeatherDisplay:10.37,2013-02-03 13:48:00,
2013-02-03 08:51:00,32.4,22.6,28.00,North,0,0.0,0.0,67,0.00,CLR,SKC,0.00,WeatherDisplay:10.37,2013-02-03 13:51:00,
2013-02-03 08:52:00,32.4,22.3,28.00,North,0,0.0,0.0,66,0.00,CLR,SKC,0.00,WeatherDisplay:10.37,2013-02-03 13:52:00,
2013-02-03 08:53:00,32.4,22.6,27.99,North,0,0.0,0.0,67,0.00,CLR,SKC,0.00,WeatherDisplay:10.37,2013-02-03 13:53:00,
2013-02-03 08:56:00,32.4,22.3,28.00,North,0,0.0,0.0,66,0.00,CLR,SKC,0.00,WeatherDisplay:10.37,2013-02-03 13:56:00,
2013-02-03 08:57:00,32.4,22.3,28.00,North,0,0.0,0.0,66,0.00,CLR,SKC,0.00,WeatherDisplay:10.37,2013-02-03 13:57:00,
2013-02-03 08:58:00,32.5,22.4,27.99,North,0,0.0,0.0,66,0.00,CLR,SKC,0.00,WeatherDisplay:10.37,2013-02-03 13:58:00,
2013-02-03 09:01:00,32.5,22.4,27.99,North,0,0.0,0.0,66,0.00,CLR,SKC,0.00,WeatherDisplay:10.37,2013-02-03 14:01:00,
2013-02-03 09:02:00,32.5,22.4,27.99,North,0,0.0,0.0,66,0.00,CLR,SKC,0.00,WeatherDisplay:10.37,2013-02-03 14:02:00,
2013-02-03 09:03:00,32.5,22.4,27.99,North,0,0.0,0.0,66,0.00,CLR,SKC,0.00,WeatherDisplay:10.37,2013-02-03 14:03:00,
2013-02-03 09:06:00,32.5,22.4,27.99,North,0,0.0,0.0,66,0.00,CLR,SKC,0.00,WeatherDisplay:10.37,2013-02-03 14:06:00,
2013-02-03 09:08:00,32.7,22.6,27.99,North,0,0.0,0.0,66,0.00,CLR,SKC,0.00,WeatherDisplay:10.37,2013-02-03 14:08:00,
2013-02-03 09:11:00,32.9,22.8,27.99,North,0,0.0,0.0,66,0.00,CLR,SKC,0.00,WeatherDisplay:10.37,2013-02-03 14:11:00,
2013-02-03 09:13:00,32.9,22.8,27.98,North,0,0.0,0.0,66,0.00,CLR,SKC,0.00,WeatherDisplay:10.37,2013-02-03 14:13:00,
2013-02-03 09:14:00,33.1,22.9,27.99,North,0,0.0,0.0,66,0.00,CLR,SKC,0.00,WeatherDisplay:10.37,2013-02-03 14:14:00,
2013-02-03 09:17:00,33.3,23.1,27.99,North,0,0.0,0.0,66,0.00,CLR,SKC,0.00,WeatherDisplay:10.37,2013-02-03 14:17:00,
2013-02-03 09:18:00,33.3,23.1,27.99,North,0,0.0,0.0,66,0.00,CLR,SKC,0.00,WeatherDisplay:10.37,2013-02-03 14:18:00,
2013-02-03 09:19:00,33.3,23.1,27.99,North,0,0.0,0.0,66,0.00,CLR,SKC,0.00,WeatherDisplay:10.37,2013-02-03 14:19:00,
2013-02-03 09:22:00,33.3,23.1,27.99,North,0,0.0,0.0,66,0.00,CLR,SKC,0.00,WeatherDisplay:10.37,2013-02-03 14:22:00,
2013-02-03 09:23:00,33.3,23.1,27.99,North,0,0.0,0.0,66,0.00,CLR,SKC,0.00,WeatherDisplay:10.37,2013-02-03 14:23:00,
2013-02-03 09:24:00,33.3,23.1,27.99,North,0,0.0,0.0,66,0.00,CLR,SKC,0.00,WeatherDisplay:10.37,2013-02-03 14:24:00,
2013-02-03 09:27:00,33.3,23.1,27.99,North,0,0.0,0.0,66,0.00,CLR,SKC,0.00,WeatherDisplay:10.37,2013-02-03 14:27:00,
2013-02-03 09:28:00,33.3,23.1,27.98,North,0,0.0,0.0,66,0.00,CLR,SKC,0.00,WeatherDisplay:10.37,2013-02-03 14:28:00,
2013-02-03 09:29:00,33.3,23.1,27.98,North,0,0.0,0.0,66,0.00,CLR,SKC,0.00,WeatherDisplay:10.37,2013-02-03 14:29:00,
2013-02-03 09:32:00,33.4,23.3,27.98,North,0,0.0,0.0,66,0.00,CLR,SKC,0.00,WeatherDisplay:10.37,2013-02-03 14:32:00,
2013-02-03 09:33:00,33.6,23.5,27.98,North,0,0.0,0.0,66,0.00,CLR,SKC,0.00,WeatherDisplay:10.37,2013-02-03 14:33:00,
2013-02-03 09:34:00,33.8,23.6,27.98,North,0,0.0,0.0,66,0.00,CLR,SKC,0.00,WeatherDisplay:10.37,2013-02-03 14:34:00,
2013-02-03 09:37:00,34.0,23.8,27.98,East,90,0.0,0.0,66,0.00,CLR,SKC,0.00,WeatherDisplay:10.37,2013-02-03 14:37:00,
2013-02-03 09:39:00,33.8,23.6,27.98,East,90,0.0,0.0,66,0.00,CLR,SKC,0.00,WeatherDisplay:10.37,2013-02-03 14:39:00,
2013-02-03 09:42:00,34.0,23.4,27.98,East,90,0.0,0.0,65,0.00,CLR,SKC,0.00,WeatherDisplay:10.37,2013-02-03 14:42:00,
2013-02-03 09:44:00,34.0,23.4,27.98,ENE,68,0.0,0.0,65,0.00,CLR,SKC,0.00,WeatherDisplay:10.37,2013-02-03 14:44:00,
2013-02-03 09:47:00,34.5,24.0,27.97,ENE,68,0.0,0.0,65,0.00,CLR,SKC,0.00,WeatherDisplay:10.37,2013-02-03 14:47:00,
2013-02-03 09:49:00,34.7,24.1,27.97,East,90,0.0,0.0,65,0.00,CLR,SKC,0.00,WeatherDisplay:10.37,2013-02-03 14:49:00,
2013-02-03 09:52:00,35.1,24.1,27.97,SE,135,0.0,0.0,64,0.00,CLR,SKC,0.00,WeatherDisplay:10.37,2013-02-03 14:52:00,
2013-02-03 09:54:00,35.1,24.1,27.97,SE,135,0.0,0.0,64,0.00,CLR,SKC,0.00,WeatherDisplay:10.37,2013-02-03 14:54:00,
2013-02-03 09:57:00,35.4,24.1,27.97,SE,135,0.0,0.0,63,0.00,CLR,SKC,0.00,WeatherDisplay:10.37,2013-02-03 14:57:00,
2013-02-03 09:59:00,35.4,24.1,27.98,SE,135,0.0,0.0,63,0.00,CLR,SKC,0.00,WeatherDisplay:10.37,2013-02-03 14:59:00,
2013-02-03 10:03:00,35.4,24.1,27.97,SE,135,0.0,0.0,63,0.00,CLR,SKC,0.00,WeatherDisplay:10.37,2013-02-03 15:03:00,
2013-02-03 10:04:00,35.4,24.1,27.98,SE,135,0.0,0.0,63,0.00,CLR,SKC,0.00,WeatherDisplay:10.37,2013-02-03 15:04:00,
2013-02-03 10:05:00,35.4,24.1,27.98,SE,135,0.0,0.0,63,0.00,CLR,SKC,0.00,WeatherDisplay:10.37,2013-02-03 15:05:00,
2013-02-03 10:08:00,36.0,23.8,27.98,SE,135,0.0,0.0,61,0.00,CLR,SKC,0.00,WeatherDisplay:10.37,2013-02-03 15:08:00,
2013-02-03 10:09:00,36.0,23.8,27.97,SE,135,0.0,0.0,61,0.00,CLR,SKC,0.00,WeatherDisplay:10.37,2013-02-03 15:09:00,
2013-02-03 10:10:00,36.0,23.8,27.97,SE,135,0.0,0.0,61,0.00,CLR,SKC,0.00,WeatherDisplay:10.37,2013-02-03 15:10:00,
2013-02-03 10:13:00,36.1,23.6,27.97,SE,135,0.0,0.0,60,0.00,CLR,SKC,0.00,WeatherDisplay:10.37,2013-02-03 15:13:00,
2013-02-03 10:14:00,36.1,23.6,27.98,SE,135,0.0,0.0,60,0.00,CLR,SKC,0.00,WeatherDisplay:10.37,2013-02-03 15:14:00,
2013-02-03 10:15:00,36.1,23.2,27.98,SE,135,0.0,0.0,59,0.00,CLR,SKC,0.00,WeatherDisplay:10.37,2013-02-03 15:15:00,
2013-02-03 10:18:00,36.1,22.8,27.98,SE,135,0.0,0.0,58,0.00,CLR,SKC,0.00,WeatherDisplay:10.37,2013-02-03 15:18:00,
2013-02-03 10:19:00,36.1,22.8,27.98,SE,135,0.0,0.0,58,0.00,CLR,SKC,0.00,WeatherDisplay:10.37,2013-02-03 15:19:00,
2013-02-03 10:20:00,36.0,22.2,27.98,SE,135,0.0,0.0,57,0.00,CLR,SKC,0.00,WeatherDisplay:10.37,2013-02-03 15:20:00,
2013-02-03 10:24:00,35.6,21.9,27.98,SE,135,0.0,0.0,57,0.00,CLR,SKC,0.00,WeatherDisplay:10.37,2013-02-03 15:24:00,
2013-02-03 10:25:00,35.6,21.9,27.98,SE,135,0.0,0.0,57,0.00,CLR,SKC,0.00,WeatherDisplay:10.37,2013-02-03 15:25:00,
2013-02-03 10:29:00,36.3,22.9,27.98,SE,135,0.0,0.0,58,0.00,CLR,SKC,0.00,WeatherDisplay:10.37,2013-02-03 15:29:00,
2013-02-03 10:30:00,36.3,22.9,27.98,SE,135,0.0,0.0,58,0.00,CLR,SKC,0.00,WeatherDisplay:10.37,2013-02-03 15:30:00,
2013-02-03 10:34:00,36.3,22.1,27.98,SE,135,0.0,0.0,56,0.00,CLR,SKC,0.00,WeatherDisplay:10.37,2013-02-03 15:34:00,
2013-02-03 10:35:00,36.5,22.3,27.98,SE,135,0.0,0.0,56,0.00,CLR,SKC,0.00,WeatherDisplay:10.37,2013-02-03 15:35:00,
2013-02-03 10:36:00,36.5,22.3,27.98,SE,135,0.0,0.0,56,0.00,CLR,SKC,0.00,WeatherDisplay:10.37,2013-02-03 15:36:00,
2013-02-03 10:39:00,36.5,22.3,27.98,SE,135,1.1,0.0,56,0.00,CLR,SKC,0.00,WeatherDisplay:10.37,2013-02-03 15:39:00,
2013-02-03 10:40:00,36.5,22.3,27.98,SE,135,0.0,0.0,56,0.00,CLR,SKC,0.00,WeatherDisplay:10.37,2013-02-03 15:40:00,
2013-02-03 10:41:00,36.3,21.7,27.98,SE,135,0.0,0.0,55,0.00,CLR,SKC,0.00,WeatherDisplay:10.37,2013-02-03 15:41:00,
2013-02-03 10:44:00,36.3,21.7,27.98,SE,135,0.0,0.0,55,0.00,CLR,SKC,0.00,WeatherDisplay:10.37,2013-02-03 15:44:00,
2013-02-03 10:45:00,36.3,21.7,27.98,SE,135,0.0,0.0,55,0.00,CLR,SKC,0.00,WeatherDisplay:10.37,2013-02-03 15:45:00,
2013-02-03 10:46:00,36.3,21.7,27.98,SE,135,0.0,0.0,55,0.00,CLR,SKC,0.00,WeatherDisplay:10.37,2013-02-03 15:46:00,
2013-02-03 10:49:00,36.3,21.7,27.98,SE,135,0.0,0.0,55,0.00,CLR,SKC,0.00,WeatherDisplay:10.37,2013-02-03 15:49:00,
2013-02-03 10:50:00,36.3,21.7,27.98,SE,135,0.0,0.0,55,0.00,CLR,SKC,0.00,WeatherDisplay:10.37,2013-02-03 15:50:00,
2013-02-03 10:51:00,36.5,21.8,27.98,SE,135,0.0,0.0,55,0.00,CLR,SKC,0.00,WeatherDisplay:10.37,2013-02-03 15:51:00,
2013-02-03 10:55:00,36.5,21.8,27.98,SE,135,0.0,0.0,55,0.00,CLR,SKC,0.00,WeatherDisplay:10.37,2013-02-03 15:55:00,
2013-02-03 10:56:00,36.7,22.0,27.98,SE,135,0.0,0.0,55,0.00,CLR,SKC,0.00,WeatherDisplay:10.37,2013-02-03 15:56:00,
2013-02-03 11:00:00,36.5,21.8,27.98,SE,135,0.0,0.0,55,0.00,CLR,SKC,0.00,WeatherDisplay:10.37,2013-02-03 16:00:00,
2013-02-03 11:01:00,36.5,21.8,27.98,SE,135,0.0,0.0,55,0.00,CLR,SKC,0.00,WeatherDisplay:10.37,2013-02-03 16:01:00,
2013-02-03 11:05:00,36.5,21.8,27.99,SE,135,0.0,0.0,55,0.00,CLR,SKC,0.00,WeatherDisplay:10.37,2013-02-03 16:05:00,
2013-02-03 11:06:00,36.5,21.8,27.99,SE,135,0.0,0.0,55,0.00,CLR,SKC,0.00,WeatherDisplay:10.37,2013-02-03 16:06:00,
2013-02-03 11:07:00,36.5,21.8,27.99,SE,135,0.0,0.0,55,0.00,CLR,SKC,0.00,WeatherDisplay:10.37,2013-02-03 16:07:00,
2013-02-03 11:11:00,36.9,22.2,27.99,SE,135,0.0,0.0,55,0.00,CLR,SKC,0.00,WeatherDisplay:10.37,2013-02-03 16:11:00,
2013-02-03 11:12:00,36.9,22.2,27.98,SE,135,2.3,2.3,55,0.00,CLR,SKC,0.00,WeatherDisplay:10.37,2013-02-03 16:12:00,
2013-02-03 11:16:00,37.0,21.9,27.99,SE,135,0.0,0.0,54,0.00,CLR,SKC,0.00,WeatherDisplay:10.37,2013-02-03 16:16:00,
2013-02-03 11:17:00,37.2,22.5,27.99,SE,135,0.0,0.0,55,0.00,CLR,SKC,0.00,WeatherDisplay:10.37,2013-02-03 16:17:00,
2013-02-03 11:21:00,37.2,22.5,27.98,SE,135,0.0,0.0,55,0.00,CLR,SKC,0.00,WeatherDisplay:10.37,2013-02-03 16:21:00,
2013-02-03 11:22:00,37.2,22.1,27.99,SE,135,0.0,0.0,54,0.00,CLR,SKC,0.00,WeatherDisplay:10.37,2013-02-03 16:22:00,
2013-02-03 11:26:00,37.2,21.6,27.99,SE,135,2.3,0.0,53,0.00,CLR,SKC,0.00,WeatherDisplay:10.37,2013-02-03 16:26:00,
2013-02-03 11:27:00,37.2,21.6,27.99,SE,135,1.1,0.0,53,0.00,CLR,SKC,0.00,WeatherDisplay:10.37,2013-02-03 16:27:00,
2013-02-03 11:28:00,37.2,22.1,27.99,SE,135,0.0,0.0,54,0.00,CLR,SKC,0.00,WeatherDisplay:10.37,2013-02-03 16:28:00,
2013-02-03 11:31:00,37.4,22.3,27.99,SE,135,1.1,0.0,54,0.00,CLR,SKC,0.00,WeatherDisplay:10.37,2013-02-03 16:31:00,
2013-02-03 11:32:00,37.4,22.3,27.99,SE,135,1.1,0.0,54,0.00,CLR,SKC,0.00,WeatherDisplay:10.37,2013-02-03 16:32:00,
2013-02-03 11:33:00,37.4,22.3,27.99,SE,135,1.1,0.0,54,0.00,CLR,SKC,0.00,WeatherDisplay:10.37,2013-02-03 16:33:00,
2013-02-03 11:36:00,37.4,22.3,27.99,NE,45,3.5,3.5,54,0.00,CLR,SKC,0.00,WeatherDisplay:10.37,2013-02-03 16:36:00,
2013-02-03 11:37:00,37.6,22.4,27.98,NE,45,3.5,0.0,54,0.00,CLR,SKC,0.00,WeatherDisplay:10.37,2013-02-03 16:37:00,
2013-02-03 11:38:00,37.6,22.9,27.99,NE,45,3.5,0.0,55,0.00,CLR,SKC,0.00,WeatherDisplay:10.37,2013-02-03 16:38:00,
2013-02-03 11:42:00,37.8,23.0,27.98,NE,45,0.0,0.0,55,0.00,CLR,SKC,0.00,WeatherDisplay:10.37,2013-02-03 16:42:00,
2013-02-03 11:43:00,37.9,23.2,27.99,SE,135,0.0,0.0,55,0.00,CLR,SKC,0.00,WeatherDisplay:10.37,2013-02-03 16:43:00,
2013-02-03 11:47:00,38.3,22.2,27.98,SE,135,3.1,3.1,52,0.00,CLR,SKC,0.00,WeatherDisplay:10.37,2013-02-03 16:47:00,
2013-02-03 11:49:00,38.5,22.4,27.98,SE,135,2.3,2.3,52,0.00,CLR,SKC,0.00,WeatherDisplay:10.37,2013-02-03 16:49:00,
2013-02-03 11:52:00,38.5,23.3,27.98,South,180,3.5,3.5,54,0.00,CLR,SKC,0.00,WeatherDisplay:10.37,2013-02-03 16:52:00,
2013-02-03 11:54:00,38.5,22.8,27.99,West,270,4.6,4.6,53,0.00,CLR,SKC,0.00,WeatherDisplay:10.37,2013-02-03 16:54:00,
2013-02-03 11:57:00,38.8,20.8,27.98,SE,135,10.4,10.4,48,0.00,CLR,SKC,0.00,WeatherDisplay:10.37,2013-02-03 16:57:00,
2013-02-03 12:00:00,39.2,21.1,27.99,South,180,5.8,5.8,48,0.00,CLR,SKC,0.00,WeatherDisplay:10.37,2013-02-03 17:00:00,
2013-02-03 12:02:00,39.4,21.3,27.98,WSW,248,4.6,4.6,48,0.00,CLR,SKC,0.00,WeatherDisplay:10.37,2013-02-03 17:02:00,
2013-02-03 12:03:00,39.4,21.3,27.99,WSW,248,4.6,4.6,48,0.00,CLR,SKC,0.00,WeatherDisplay:10.37,2013-02-03 17:03:00,
2013-02-03 12:05:00,39.4,21.3,27.99,WSW,248,4.6,4.6,48,0.00,CLR,SKC,0.00,WeatherDisplay:10.37,2013-02-03 17:05:00,
2013-02-03 12:07:00,39.4,21.3,27.98,WSW,248,4.6,4.6,48,0.00,CLR,SKC,0.00,WeatherDisplay:10.37,2013-02-03 17:07:00,
2013-02-03 12:08:00,39.4,21.3,27.99,WSW,248,4.6,4.6,48,0.00,CLR,SKC,0.00,WeatherDisplay:10.37,2013-02-03 17:08:00,
2013-02-03 12:10:00,42.1,15.7,27.98,NNW,338,12.7,12.7,34,0.00,CLR,SKC,0.00,WeatherDisplay:10.37,2013-02-03 17:10:00,
2013-02-03 12:12:00,42.6,14.8,27.98,ENE,68,9.2,9.2,32,0.00,CLR,SKC,0.00,WeatherDisplay:10.37,2013-02-03 17:12:00,
2013-02-03 12:13:00,42.6,14.8,27.98,ENE,68,8.1,8.1,32,0.00,CLR,SKC,0.00,WeatherDisplay:10.37,2013-02-03 17:13:00,
2013-02-03 12:15:00,42.6,14.8,27.98,North,0,5.8,5.8,32,0.00,CLR,SKC,0.00,WeatherDisplay:10.37,2013-02-03 17:15:00,
2013-02-03 12:18:00,42.3,12.2,27.98,NW,315,6.9,6.9,29,0.00,CLR,SKC,0.00,WeatherDisplay:10.37,2013-02-03 17:18:00,
2013-02-03 12:20:00,42.1,11.3,27.98,NE,45,5.8,5.8,28,0.00,CLR,SKC,0.00,WeatherDisplay:10.37,2013-02-03 17:20:00,
2013-02-03 12:23:00,41.9,10.3,27.97,SW,225,3.5,3.5,27,0.00,CLR,SKC,0.00,WeatherDisplay:10.37,2013-02-03 17:23:00,
2013-02-03 12:25:00,42.3,11.4,27.97,North,0,3.5,3.5,28,0.00,CLR,SKC,0.00,WeatherDisplay:10.37,2013-02-03 17:25:00,
2013-02-03 12:28:00,42.6,12.5,27.98,South,180,2.3,0.0,29,0.00,CLR,SKC,0.00,WeatherDisplay:10.37,2013-02-03 17:28:00,
2013-02-03 12:31:00,43.0,10.4,27.98,SW,225,11.5,11.5,26,0.00,CLR,SKC,0.00,WeatherDisplay:10.37,2013-02-03 17:31:00,
2013-02-03 12:33:00,43.0,12.8,27.98,WNW,292,5.8,5.8,29,0.00,CLR,SKC,0.00,WeatherDisplay:10.37,2013-02-03 17:33:00,
2013-02-03 12:36:00,42.4,8.1,27.98,West,270,6.9,6.9,24,0.01,RA,SKC,0.01,WeatherDisplay:10.37,2013-02-03 17:36:00,
2013-02-03 12:38:00,42.1,7.8,27.97,NW,315,13.8,13.8,24,0.02,RA,SKC,0.02,WeatherDisplay:10.37,2013-02-03 17:38:00,
2013-02-03 12:39:00,41.7,7.5,27.98,SW,225,13.8,13.8,24,0.02,RA,SKC,0.02,WeatherDisplay:10.37,2013-02-03 17:39:00,
2013-02-03 12:41:00,41.5,7.4,27.98,NE,45,10.4,10.4,24,0.02,RA,SKC,0.02,WeatherDisplay:10.37,2013-02-03 17:41:00,
2013-02-03 12:43:00,41.4,5.3,27.98,NW,315,9.2,9.2,22,0.04,RA,SKC,0.04,WeatherDisplay:10.37,2013-02-03 17:43:00,
2013-02-03 12:44:00,41.2,-0.4,27.98,North,0,9.2,9.2,17,0.04,RA,SKC,0.04,WeatherDisplay:10.37,2013-02-03 17:44:00,
2013-02-03 12:46:00,41.2,3.1,27.98,North,0,12.7,12.7,20,0.05,RA,SKC,0.05,WeatherDisplay:10.37,2013-02-03 17:46:00,
2013-02-03 12:48:00,41.0,2.9,27.97,North,0,13.8,13.8,20,0.05,RA,SKC,0.05,WeatherDisplay:10.37,2013-02-03 17:48:00,
2013-02-03 12:49:00,41.0,2.9,27.97,North,0,13.8,13.8,20,0.05,RA,SKC,0.05,WeatherDisplay:10.37,2013-02-03 17:49:00,
2013-02-03 12:52:00,41.0,2.9,27.97,NW,315,12.7,12.7,20,0.06,RA,SKC,0.06,WeatherDisplay:10.37,2013-02-03 17:52:00,
2013-02-03 12:53:00,41.0,2.9,27.97,NW,315,8.1,8.1,20,0.06,RA,SKC,0.06,WeatherDisplay:10.37,2013-02-03 17:53:00,
2013-02-03 12:54:00,41.0,2.9,27.97,NW,315,8.1,8.3,20,0.06,RA,SKC,0.06,WeatherDisplay:10.37,2013-02-03 17:54:00,
2013-02-03 12:57:00,41.0,2.9,27.97,NE,45,5.8,5.8,20,0.06,RA,SKC,0.06,WeatherDisplay:10.37,2013-02-03 17:57:00,
2013-02-03 12:58:00,41.2,4.1,27.97,NW,315,5.8,0.0,21,0.07,RA,SKC,0.07,WeatherDisplay:10.37,2013-02-03 17:58:00,
2013-02-03 12:59:00,41.2,4.1,27.97,NW,315,4.6,0.0,21,0.07,RA,SKC,0.07,WeatherDisplay:10.37,2013-02-03 17:59:00,
2013-02-03 13:02:00,41.4,0.9,27.97,North,0,5.8,5.8,18,0.07,RA,SKC,0.07,WeatherDisplay:10.37,2013-02-03 18:02:00,
2013-02-03 13:03:00,41.5,-0.1,27.98,NW,315,6.9,6.9,17,0.07,RA,SKC,0.07,WeatherDisplay:10.37,2013-02-03 18:03:00,
2013-02-03 13:04:00,41.4,-0.3,27.98,NW,315,6.9,6.9,17,0.07,RA,SKC,0.07,WeatherDisplay:10.37,2013-02-03 18:04:00,
2013-02-03 13:07:00,41.4,-1.6,27.98,NW,315,10.4,10.4,16,0.08,RA,SKC,0.08,WeatherDisplay:10.37,2013-02-03 18:07:00,
2013-02-03 13:09:00,41.4,-0.3,27.97,West,270,5.8,5.8,17,0.08,RA,SKC,0.08,WeatherDisplay:10.37,2013-02-03 18:09:00,
2013-02-03 13:10:00,41.4,-0.3,27.98,North,0,10.4,10.4,17,0.08,RA,SKC,0.08,WeatherDisplay:10.37,2013-02-03 18:10:00,
2013-02-03 13:12:00,41.5,-2.8,27.98,NW,315,10.4,10.4,15,0.08,RA,SKC,0.08,WeatherDisplay:10.37,2013-02-03 18:12:00,
2013-02-03 13:14:00,41.9,-2.5,27.98,West,270,3.5,3.5,15,0.09,RA,SKC,0.09,WeatherDisplay:10.37,2013-02-03 18:14:00,
2013-02-03 13:15:00,41.9,-5.5,27.97,WSW,248,11.5,11.5,13,0.09,RA,SKC,0.09,WeatherDisplay:10.37,2013-02-03 18:15:00,
2013-02-03 13:17:00,41.9,-7.1,27.97,NW,315,9.2,9.2,12,0.09,RA,SKC,0.09,WeatherDisplay:10.37,2013-02-03 18:17:00,
2013-02-03 13:19:00,41.9,-7.1,27.97,North,0,9.2,9.2,12,0.09,RA,SKC,0.09,WeatherDisplay:10.37,2013-02-03 18:19:00,
2013-02-03 13:20:00,41.9,-5.5,27.97,NE,45,8.1,8.1,13,0.09,RA,SKC,0.09,WeatherDisplay:10.37,2013-02-03 18:20:00,
2013-02-03 13:22:00,42.4,-5.0,27.97,East,90,3.1,3.1,13,0.11,RA,SKC,0.11,WeatherDisplay:10.37,2013-02-03 18:22:00,
2013-02-03 13:24:00,42.4,-8.5,27.97,NW,315,8.3,8.3,11,0.11,RA,SKC,0.11,WeatherDisplay:10.37,2013-02-03 18:24:00,
2013-02-03 13:25:00,42.6,-6.6,27.97,West,270,8.1,8.1,12,0.11,RA,SKC,0.11,WeatherDisplay:10.37,2013-02-03 18:25:00,
2013-02-03 13:27:00,42.4,-6.7,27.97,North,0,5.8,5.8,12,0.11,RA,SKC,0.11,WeatherDisplay:10.37,2013-02-03 18:27:00,
2013-02-03 13:29:00,42.4,-6.7,27.97,NW,315,6.9,6.9,12,0.11,RA,SKC,0.11,WeatherDisplay:10.37,2013-02-03 18:29:00,
2013-02-03 13:30:00,42.4,-3.5,27.97,North,0,5.8,5.8,14,0.12,RA,SKC,0.12,WeatherDisplay:10.37,2013-02-03 18:30:00,
2013-02-03 13:32:00,42.4,-3.5,27.97,North,0,4.6,4.6,14,0.12,RA,SKC,0.12,WeatherDisplay:10.37,2013-02-03 18:32:00,
2013-02-03 13:34:00,42.4,-3.5,27.97,North,0,4.6,4.6,14,0.11,RA,SKC,0.12,WeatherDisplay:10.37,2013-02-03 18:34:00,
2013-02-03 13:35:00,42.4,-3.5,27.97,North,0,4.6,4.6,14,0.11,RA,SKC,0.12,WeatherDisplay:10.37,2013-02-03 18:35:00,
2013-02-03 13:37:00,42.4,-3.5,27.96,North,0,4.6,4.6,14,0.11,RA,SKC,0.12,WeatherDisplay:10.37,2013-02-03 18:37:00,
2013-02-03 13:40:00,42.3,-3.6,27.97,NW,315,5.8,5.8,14,0.09,,SKC,0.12,WeatherDisplay:10.37,2013-02-03 18:40:00,
2013-02-03 13:41:00,42.3,-6.8,27.97,North,0,12.7,12.7,12,0.11,RA,SKC,0.13,WeatherDisplay:10.37,2013-02-03 18:41:00,
2013-02-03 13:43:00,42.6,-6.6,27.97,North,0,12.7,12.7,12,0.09,RA,SKC,0.13,WeatherDisplay:10.37,2013-02-03 18:43:00,
2013-02-03 13:45:00,42.3,-5.2,27.97,ENE,68,8.1,0.0,13,0.08,RA,SKC,0.13,WeatherDisplay:10.37,2013-02-03 18:45:00,
2013-02-03 13:46:00,42.3,-5.2,27.97,NE,45,2.3,0.0,13,0.08,RA,SKC,0.13,WeatherDisplay:10.37,2013-02-03 18:46:00,
2013-02-03 13:48:00,42.3,-5.2,27.97,NW,315,5.8,5.8,13,0.08,RA,SKC,0.13,WeatherDisplay:10.37,2013-02-03 18:48:00,
2013-02-03 13:50:00,42.3,-10.6,27.97,NW,315,8.1,8.1,10,0.08,RA,SKC,0.13,WeatherDisplay:10.37,2013-02-03 18:50:00,
2013-02-03 13:51:00,42.3,-10.6,27.97,North,0,8.1,8.3,10,0.08,,SKC,0.13,WeatherDisplay:10.37,2013-02-03 18:51:00,
2013-02-03 13:53:00,42.4,-10.4,27.97,SW,225,12.7,12.7,10,0.08,RA,SKC,0.14,WeatherDisplay:10.37,2013-02-03 18:53:00,
2013-02-03 13:55:00,42.6,-6.6,27.97,SW,225,5.8,0.0,12,0.08,RA,SKC,0.14,WeatherDisplay:10.37,2013-02-03 18:55:00,
2013-02-03 13:56:00,42.6,-6.6,27.97,SW,225,5.8,0.0,12,0.08,RA,SKC,0.14,WeatherDisplay:10.37,2013-02-03 18:56:00,
2013-02-03 13:58:00,42.6,-10.3,27.97,NW,315,9.2,9.2,10,0.07,RA,SKC,0.14,WeatherDisplay:10.37,2013-02-03 18:58:00,
2013-02-03 14:00:00,43.0,-10.0,27.97,North,0,8.1,8.1,10,0.07,RA,SKC,0.14,WeatherDisplay:10.37,2013-02-03 19:00:00,
2013-02-03 14:01:00,43.0,-10.0,27.97,North,0,8.1,8.1,10,0.07,RA,SKC,0.14,WeatherDisplay:10.37,2013-02-03 19:01:00,
2013-02-03 14:02:00,43.0,-10.0,27.96,North,0,8.1,8.1,10,0.07,,SKC,0.14,WeatherDisplay:10.37,2013-02-03 19:02:00,
2013-02-03 14:03:00,43.0,-10.0,27.97,North,0,8.1,8.1,10,0.07,,SKC,0.14,WeatherDisplay:10.37,2013-02-03 19:03:00,
2013-02-03 14:05:00,44.8,-8.6,27.96,NNW,338,5.8,5.8,10,0.08,RA,SKC,0.15,WeatherDisplay:10.37,2013-02-03 19:05:00,
2013-02-03 14:06:00,44.8,-8.6,27.96,NNW,338,5.8,5.8,10,0.07,RA,SKC,0.15,WeatherDisplay:10.37,2013-02-03 19:06:00,
2013-02-03 14:07:00,45.0,-8.5,27.96,North,0,8.1,8.1,10,0.08,RA,SKC,0.17,WeatherDisplay:10.37,2013-02-03 19:07:00,
2013-02-03 14:08:00,45.3,-8.2,27.96,North,0,9.2,9.2,10,0.08,RA,SKC,0.17,WeatherDisplay:10.37,2013-02-03 19:08:00,
2013-02-03 15:38:00,46.6,-1.7,27.96,NW,315,6.9,6.9,13,0.00,CLR,SKC,0.18,WeatherDisplay:10.37,2013-02-03 20:38:00,
2013-02-03 15:43:00,47.3,-1.2,27.96,NW,315,8.1,8.1,13,0.00,CLR,SKC,0.18,WeatherDisplay:10.37,2013-02-03 20:43:00,
2013-02-03 15:44:00,47.5,-1.0,27.96,WNW,292,8.1,8.1,13,0.00,CLR,SKC,0.18,WeatherDisplay:10.37,2013-02-03 20:44:00,
2013-02-03 15:48:00,48.2,-0.5,27.96,NW,315,8.1,8.1,13,0.00,CLR,SKC,0.18,WeatherDisplay:10.37,2013-02-03 20:48:00,
2013-02-03 15:49:00,47.7,-0.9,27.97,SW,225,8.1,8.1,13,0.00,CLR,SKC,0.18,WeatherDisplay:10.37,2013-02-03 20:49:00,
2013-02-03 15:53:00,47.8,-0.7,27.96,SW,225,5.8,5.8,13,0.00,CLR,SKC,0.18,WeatherDisplay:10.37,2013-02-03 20:53:00,
2013-02-03 15:54:00,48.2,-0.5,27.97,NW,315,10.4,10.4,13,0.00,CLR,SKC,0.18,WeatherDisplay:10.37,2013-02-03 20:54:00,
2013-02-03 15:58:00,47.7,-0.9,27.97,NE,45,5.8,0.0,13,0.00,CLR,SKC,0.18,WeatherDisplay:10.37,2013-02-03 20:58:00,
2013-02-03 15:59:00,47.7,-0.9,27.97,NNE,22,5.8,5.8,13,0.00,CLR,SKC,0.18,WeatherDisplay:10.37,2013-02-03 20:59:00,
2013-02-03 16:03:00,47.5,-1.0,27.97,North,0,8.1,8.1,13,0.00,CLR,SKC,0.18,WeatherDisplay:10.37,2013-02-03 21:03:00,
2013-02-03 16:04:00,47.5,-1.0,27.97,North,0,3.5,3.5,13,0.00,CLR,SKC,0.18,WeatherDisplay:10.37,2013-02-03 21:04:00,
2013-02-03 16:08:00,47.5,-1.0,27.97,NNW,338,6.9,6.9,13,0.00,CLR,SKC,0.18,WeatherDisplay:10.37,2013-02-03 21:08:00,
2013-02-03 16:09:00,47.3,-1.2,27.97,North,0,6.9,6.9,13,0.00,CLR,SKC,0.18,WeatherDisplay:10.37,2013-02-03 21:09:00,
2013-02-03 16:14:00,46.8,-1.6,27.97,NNW,338,10.4,10.4,13,0.00,CLR,SKC,0.18,WeatherDisplay:10.37,2013-02-03 21:14:00,
2013-02-03 16:19:00,46.8,-1.6,27.97,SE,135,0.0,0.0,13,0.00,CLR,SKC,0.18,WeatherDisplay:10.37,2013-02-03 21:19:00,
2013-02-03 16:20:00,46.8,-1.6,27.98,SE,135,0.0,0.0,13,0.00,CLR,SKC,0.18,WeatherDisplay:10.37,2013-02-03 21:20:00,
2013-02-03 16:24:00,46.9,-1.5,27.97,NW,315,3.5,3.5,13,0.01,RA,SKC,0.19,WeatherDisplay:10.37,2013-02-03 21:24:00,
2013-02-03 16:25:00,47.3,-1.2,27.98,NE,45,4.6,0.0,13,0.01,RA,SKC,0.19,WeatherDisplay:10.37,2013-02-03 21:25:00,
2013-02-03 16:29:00,47.8,-0.7,27.98,North,0,5.8,5.8,13,0.01,RA,SKC,0.19,WeatherDisplay:10.37,2013-02-03 21:29:00,
2013-02-03 16:31:00,47.8,-0.7,27.98,NE,45,5.8,5.8,13,0.01,RA,SKC,0.19,WeatherDisplay:10.37,2013-02-03 21:31:00,
2013-02-03 16:34:00,47.7,-0.9,27.97,SW,225,2.3,0.0,13,0.01,,SKC,0.19,WeatherDisplay:10.37,2013-02-03 21:34:00,
2013-02-03 16:35:00,47.8,-0.7,27.98,NW,315,6.9,6.9,13,0.01,CLR,SKC,0.19,WeatherDisplay:10.37,2013-02-03 21:35:00,
2013-02-03 16:36:00,47.7,-0.9,27.98,North,0,10.4,10.4,13,0.01,CLR,SKC,0.19,WeatherDisplay:10.37,2013-02-03 21:36:00,
2013-02-03 16:39:00,47.3,-1.2,27.98,NW,315,4.6,4.6,13,0.01,CLR,SKC,0.19,WeatherDisplay:10.37,2013-02-03 21:39:00,
2013-02-03 16:40:00,47.1,-1.3,27.98,NE,45,5.8,5.8,13,0.01,CLR,SKC,0.19,WeatherDisplay:10.37,2013-02-03 21:40:00,
2013-02-03 16:41:00,47.3,-1.2,27.98,North,0,5.8,5.8,13,0.01,CLR,SKC,0.19,WeatherDisplay:10.37,2013-02-03 21:41:00,
2013-02-03 16:44:00,47.1,-1.3,27.98,West,270,4.6,4.6,13,0.01,CLR,SKC,0.19,WeatherDisplay:10.37,2013-02-03 21:44:00,
2013-02-03 16:45:00,46.9,-1.5,27.98,North,0,4.6,4.6,13,0.01,CLR,SKC,0.19,WeatherDisplay:10.37,2013-02-03 21:45:00,
2013-02-03 16:46:00,46.9,-1.5,27.98,NW,315,4.6,0.0,13,0.01,CLR,SKC,0.19,WeatherDisplay:10.37,2013-02-03 21:46:00,
2013-02-03 16:49:00,47.3,-1.2,27.98,NE,45,4.6,4.6,13,0.01,CLR,SKC,0.19,WeatherDisplay:10.37,2013-02-03 21:49:00,
2013-02-03 16:50:00,47.1,-1.3,27.98,North,0,10.4,10.4,13,0.01,CLR,SKC,0.19,WeatherDisplay:10.37,2013-02-03 21:50:00,
2013-02-03 16:51:00,46.9,-1.5,27.99,NNW,338,10.4,10.4,13,0.01,CLR,SKC,0.19,WeatherDisplay:10.37,2013-02-03 21:51:00,
2013-02-03 16:54:00,46.9,-1.5,27.99,North,0,6.9,6.9,13,0.01,CLR,SKC,0.19,WeatherDisplay:10.37,2013-02-03 21:54:00,
2013-02-03 16:55:00,46.9,-1.5,27.99,North,0,6.9,6.9,13,0.01,CLR,SKC,0.19,WeatherDisplay:10.37,2013-02-03 21:55:00,
2013-02-03 16:56:00,46.9,-1.5,27.99,NW,315,6.9,6.9,13,0.01,CLR,SKC,0.19,WeatherDisplay:10.37,2013-02-03 21:56:00,
2013-02-03 16:57:00,46.9,-1.5,27.99,NE,45,8.1,8.1,13,0.01,CLR,SKC,0.19,WeatherDisplay:10.37,2013-02-03 21:57:00,
2013-02-03 16:59:00,47.1,-1.3,27.99,North,9,0.0,11.0,13,0.00,CLR,SKC,0.19,WeatherDisplay:10.37,2013-02-03 21:59:00,
2013-02-03 17:00:00,47.3,-1.2,27.99,NW,315,4.6,0.0,13,0.01,CLR,SKC,0.19,WeatherDisplay:10.37,2013-02-03 22:00:00,
2013-02-03 17:01:00,47.3,-1.2,27.99,NW,315,1.1,0.0,13,0.01,CLR,SKC,0.19,WeatherDisplay:10.37,2013-02-03 22:01:00,
2013-02-03 17:02:00,47.3,-1.2,27.99,NW,315,1.1,0.0,13,0.01,CLR,SKC,0.19,WeatherDisplay:10.37,2013-02-03 22:02:00,
2013-02-03 17:05:00,47.3,-1.2,27.99,NW,315,1.1,0.0,13,0.01,CLR,SKC,0.19,WeatherDisplay:10.37,2013-02-03 22:05:00,
2013-02-03 17:06:00,47.3,-1.2,27.99,NW,315,1.1,0.0,13,0.01,CLR,SKC,0.19,WeatherDisplay:10.37,2013-02-03 22:06:00,
2013-02-03 17:07:00,47.3,-1.2,27.99,NW,315,1.1,0.0,13,0.01,CLR,SKC,0.19,WeatherDisplay:10.37,2013-02-03 22:07:00,
2013-02-03 17:10:00,46.9,-1.5,27.99,NE,45,10.4,0.0,13,0.01,CLR,SKC,0.19,WeatherDisplay:10.37,2013-02-03 22:10:00,
2013-02-03 17:11:00,46.9,-1.5,27.99,NE,45,10.4,10.4,13,0.01,CLR,SKC,0.19,WeatherDisplay:10.37,2013-02-03 22:11:00,
2013-02-03 17:12:00,46.6,-1.7,27.98,North,0,13.8,13.8,13,0.01,CLR,SKC,0.19,WeatherDisplay:10.37,2013-02-03 22:12:00,
2013-02-03 17:15:00,46.0,-2.2,27.99,NW,315,15.0,15.0,13,0.01,CLR,SKC,0.19,WeatherDisplay:10.37,2013-02-03 22:15:00,
2013-02-03 17:16:00,45.9,-2.3,27.99,NW,315,13.8,13.8,13,0.01,CLR,SKC,0.19,WeatherDisplay:10.37,2013-02-03 22:16:00,
2013-02-03 17:18:00,45.7,-2.5,27.99,NNE,14,15.0,15.0,13,0.01,CLR,SKC,0.19,WeatherDisplay:10.37,2013-02-03 22:18:00,
2013-02-03 17:20:00,45.5,-2.6,27.99,NW,315,10.4,10.4,13,0.01,CLR,SKC,0.19,WeatherDisplay:10.37,2013-02-03 22:20:00,
2013-02-03 17:21:00,45.5,-2.6,27.99,West,270,10.4,10.4,13,0.01,CLR,SKC,0.19,WeatherDisplay:10.37,2013-02-03 22:21:00,
2013-02-03 17:23:00,45.7,-2.5,27.99,NE,45,5.8,0.0,13,0.00,CLR,SKC,0.19,WeatherDisplay:10.37,2013-02-03 22:23:00,
2013-02-03 17:26:00,45.9,-2.3,27.99,North,0,4.6,0.0,13,0.00,CLR,SKC,0.19,WeatherDisplay:10.37,2013-02-03 22:26:00,
2013-02-03 17:28:00,45.9,-2.3,27.99,SW,225,5.8,5.8,13,0.00,CLR,SKC,0.19,WeatherDisplay:10.37,2013-02-03 22:28:00,
2013-02-03 17:31:00,45.7,-2.5,27.99,North,0,3.5,0.0,13,0.00,CLR,SKC,0.19,WeatherDisplay:10.37,2013-02-03 22:31:00,
2013-02-03 17:33:00,45.7,-2.5,27.99,East,90,3.5,0.0,13,0.00,CLR,SKC,0.19,WeatherDisplay:10.37,2013-02-03 22:33:00,
2013-02-03 17:36:00,45.7,-2.5,27.99,NNW,338,8.1,8.1,13,0.00,CLR,SKC,0.19,WeatherDisplay:10.37,2013-02-03 22:36:00,
2013-02-03 17:38:00,44.8,-3.2,27.99,West,270,6.9,6.9,13,0.00,CLR,SKC,0.19,WeatherDisplay:10.37,2013-02-03 22:38:00,
2013-02-03 17:41:00,44.2,-3.6,27.99,NW,315,8.1,8.1,13,0.00,CLR,SKC,0.19,WeatherDisplay:10.37,2013-02-03 22:41:00,
2013-02-03 17:43:00,44.1,-3.8,27.99,NW,315,4.6,0.0,13,0.00,CLR,SKC,0.19,WeatherDisplay:10.37,2013-02-03 22:43:00,
2013-02-03 17:46:00,43.9,-3.9,27.99,NW,315,8.1,8.1,13,0.00,CLR,SKC,0.19,WeatherDisplay:10.37,2013-02-03 22:46:00,
2013-02-03 17:47:00,43.9,-3.9,27.99,NW,315,8.1,8.1,13,0.00,CLR,SKC,0.19,WeatherDisplay:10.37,2013-02-03 22:47:00,
2013-02-03 17:48:00,43.9,-3.9,27.99,NNW,338,8.1,8.1,13,0.00,CLR,SKC,0.19,WeatherDisplay:10.37,2013-02-03 22:48:00,
2013-02-03 17:51:00,43.7,-4.0,27.99,West,270,15.0,15.0,13,0.00,CLR,SKC,0.19,WeatherDisplay:10.37,2013-02-03 22:51:00,
2013-02-03 17:52:00,43.7,-4.0,27.99,West,270,12.7,12.7,13,0.00,CLR,SKC,0.19,WeatherDisplay:10.37,2013-02-03 22:52:00,
2013-02-03 17:53:00,43.5,-4.2,27.99,North,0,10.4,10.4,13,0.00,CLR,SKC,0.19,WeatherDisplay:10.37,2013-02-03 22:53:00,
2013-02-03 17:56:00,43.5,-4.2,27.99,West,270,5.8,6.9,13,0.00,CLR,SKC,0.19,WeatherDisplay:10.37,2013-02-03 22:56:00,
2013-02-03 17:57:00,43.5,-4.2,27.99,West,270,12.7,12.7,13,0.00,CLR,SKC,0.19,WeatherDisplay:10.37,2013-02-03 22:57:00,
2013-02-03 17:58:00,43.3,-4.3,27.99,NW,315,12.7,12.7,13,0.00,CLR,SKC,0.19,WeatherDisplay:10.37,2013-02-03 22:58:00,
2013-02-03 18:02:00,43.3,-4.3,27.99,NW,315,6.0,6.0,13,0.00,CLR,SKC,0.19,WeatherDisplay:10.37,2013-02-03 23:02:00,
2013-02-03 18:03:00,43.3,-4.3,27.99,NW,315,5.8,5.8,13,0.00,CLR,SKC,0.19,WeatherDisplay:10.37,2013-02-03 23:03:00,
2013-02-03 18:07:00,43.3,-4.3,27.99,NW,315,5.8,5.8,13,0.00,CLR,SKC,0.19,WeatherDisplay:10.37,2013-02-03 23:07:00,
2013-02-03 18:09:00,42.3,-5.2,27.99,NW,315,3.5,3.5,13,0.00,CLR,SKC,0.19,WeatherDisplay:10.37,2013-02-03 23:09:00,
2013-02-03 18:12:00,41.5,-5.8,27.99,NE,45,4.6,0.0,13,0.00,CLR,SKC,0.19,WeatherDisplay:10.37,2013-02-03 23:12:00,
2013-02-03 18:13:00,41.5,-5.8,27.99,North,0,5.8,5.8,13,0.00,CLR,SKC,0.19,WeatherDisplay:10.37,2013-02-03 23:13:00,
2013-02-03 18:14:00,41.5,-5.8,27.99,North,0,5.8,5.8,13,0.00,CLR,SKC,0.19,WeatherDisplay:10.37,2013-02-03 23:14:00,
2013-02-03 18:17:00,41.4,-5.9,27.99,NW,315,11.5,11.5,13,0.00,CLR,SKC,0.19,WeatherDisplay:10.37,2013-02-03 23:17:00,
2013-02-03 18:18:00,41.5,-5.8,27.99,SW,225,11.5,11.5,13,0.00,CLR,SKC,0.19,WeatherDisplay:10.37,2013-02-03 23:18:00,
2013-02-03 18:19:00,41.5,-5.8,27.99,North,0,8.1,8.1,13,0.00,CLR,SKC,0.19,WeatherDisplay:10.37,2013-02-03 23:19:00,
2013-02-03 18:22:00,41.5,-5.8,27.99,North,0,0.0,2.2,13,0.00,CLR,SKC,0.19,WeatherDisplay:10.37,2013-02-03 23:22:00,
2013-02-03 18:23:00,41.4,-5.9,27.99,North,0,6.9,6.9,13,0.00,CLR,SKC,0.19,WeatherDisplay:10.37,2013-02-03 23:23:00,
2013-02-03 18:24:00,41.4,-5.9,27.99,North,0,6.9,6.9,13,0.00,CLR,SKC,0.19,WeatherDisplay:10.37,2013-02-03 23:24:00,
2013-02-03 18:27:00,41.2,-6.1,27.99,NE,45,9.2,9.2,13,0.00,CLR,SKC,0.19,WeatherDisplay:10.37,2013-02-03 23:27:00,
2013-02-03 18:28:00,41.2,-6.1,27.99,North,0,8.1,8.1,13,0.00,CLR,SKC,0.19,WeatherDisplay:10.37,2013-02-03 23:28:00,
2013-02-03 18:29:00,41.4,-5.9,28.00,North,0,5.8,0.0,13,0.00,CLR,SKC,0.19,WeatherDisplay:10.37,2013-02-03 23:29:00,
2013-02-03 18:32:00,41.0,-6.2,28.00,NE,45,5.8,5.8,13,0.00,CLR,SKC,0.19,WeatherDisplay:10.37,2013-02-03 23:32:00,
2013-02-03 18:33:00,41.0,-6.2,28.00,NE,45,5.8,5.8,13,0.00,CLR,SKC,0.19,WeatherDisplay:10.37,2013-02-03 23:33:00,
2013-02-03 18:34:00,41.0,-6.2,28.00,NE,45,8.1,8.1,13,0.00,CLR,SKC,0.19,WeatherDisplay:10.37,2013-02-03 23:34:00,
2013-02-03 18:38:00,41.2,-6.1,28.00,NE,45,3.5,0.0,13,0.00,CLR,SKC,0.19,WeatherDisplay:10.37,2013-02-03 23:38:00,
2013-02-03 18:39:00,41.0,-6.2,28.00,NE,45,3.5,0.0,13,0.00,CLR,SKC,0.19,WeatherDisplay:10.37,2013-02-03 23:39:00,
2013-02-03 18:43:00,40.5,-6.6,28.01,North,0,4.6,4.6,13,0.00,CLR,SKC,0.19,WeatherDisplay:10.37,2013-02-03 23:43:00,
2013-02-03 18:44:00,40.3,-6.8,28.01,NE,45,3.5,3.5,13,0.00,CLR,SKC,0.19,WeatherDisplay:10.37,2013-02-03 23:44:00,
2013-02-03 18:48:00,40.3,-12.1,28.01,ENE,68,3.5,0.0,10,0.00,CLR,SKC,0.19,WeatherDisplay:10.37,2013-02-03 23:48:00,
2013-02-03 18:49:00,40.3,-12.1,28.01,ENE,68,1.1,0.0,10,0.00,CLR,SKC,0.19,WeatherDisplay:10.37,2013-02-03 23:49:00,
2013-02-03 18:53:00,39.6,-12.7,28.01,NW,315,5.8,5.8,10,0.00,CLR,SKC,0.19,WeatherDisplay:10.37,2013-02-03 23:53:00,
2013-02-03 18:54:00,39.7,-8.8,28.01,North,0,5.8,0.0,12,0.00,CLR,SKC,0.19,WeatherDisplay:10.37,2013-02-03 23:54:00,
2013-02-03 18:58:00,39.6,-4.4,28.01,West,270,4.6,0.0,15,0.00,CLR,SKC,0.19,WeatherDisplay:10.37,2013-02-03 23:58:00,
2013-02-03 18:59:00,39.6,-4.4,28.01,West,270,3.5,0.0,15,0.00,CLR,SKC,0.19,WeatherDisplay:10.37,2013-02-03 23:59:00,
2013-02-03 19:00:00,39.2,-7.6,28.01,North,0,2.3,0.0,13,0.00,CLR,SKC,0.19,WeatherDisplay:10.37,2013-02-04 00:00:00,
2013-02-03 19:03:00,39.2,-7.6,28.02,North,0,0.0,0.0,13,0.00,CLR,SKC,0.19,WeatherDisplay:10.37,2013-02-04 00:03:00,
2013-02-03 19:04:00,39.2,-7.6,28.02,North,0,0.0,0.0,13,0.00,CLR,SKC,0.19,WeatherDisplay:10.37,2013-02-04 00:04:00,
2013-02-03 19:05:00,39.2,-7.6,28.02,North,0,0.0,0.0,13,0.00,CLR,SKC,0.19,WeatherDisplay:10.37,2013-02-04 00:05:00,
2013-02-03 19:08:00,39.0,-6.3,28.02,North,0,5.8,5.8,14,0.00,CLR,SKC,0.19,WeatherDisplay:10.37,2013-02-04 00:08:00,
2013-02-03 19:09:00,39.0,-4.8,28.02,North,0,5.8,5.8,15,0.00,CLR,SKC,0.19,WeatherDisplay:10.37,2013-02-04 00:09:00,
2013-02-03 19:10:00,39.0,-7.8,28.02,North,0,6.9,6.9,13,0.00,CLR,SKC,0.19,WeatherDisplay:10.37,2013-02-04 00:10:00,
2013-02-03 19:13:00,39.0,-7.8,28.02,North,0,5.8,5.8,13,0.00,CLR,SKC,0.19,WeatherDisplay:10.37,2013-02-04 00:13:00,
2013-02-03 19:14:00,39.0,-6.3,28.02,North,0,5.8,0.0,14,0.00,CLR,SKC,0.19,WeatherDisplay:10.37,2013-02-04 00:14:00,
2013-02-03 19:15:00,39.0,-6.3,28.02,North,0,4.6,0.0,14,0.00,CLR,SKC,0.19,WeatherDisplay:10.37,2013-02-04 00:15:00,
2013-02-03 19:18:00,39.2,-9.3,28.02,NW,315,6.9,6.9,12,0.00,CLR,SKC,0.19,WeatherDisplay:10.37,2013-02-04 00:18:00,
2013-02-03 19:20:00,39.2,-7.6,28.03,North,0,6.9,0.0,13,0.00,CLR,SKC,0.19,WeatherDisplay:10.37,2013-02-04 00:20:00,
2013-02-03 19:21:00,39.2,-6.1,28.03,North,0,4.6,4.6,14,0.00,CLR,SKC,0.19,WeatherDisplay:10.37,2013-02-04 00:21:00,
2013-02-03 19:23:00,39.2,-7.6,28.02,North,0,5.8,5.8,13,0.00,CLR,SKC,0.19,WeatherDisplay:10.37,2013-02-04 00:23:00,
2013-02-03 19:25:00,39.2,-9.3,28.03,North,0,4.6,4.6,12,0.00,CLR,SKC,0.19,WeatherDisplay:10.37,2013-02-04 00:25:00,
2013-02-03 19:26:00,39.2,-7.6,28.02,North,0,4.6,4.6,13,0.00,CLR,SKC,0.19,WeatherDisplay:10.37,2013-02-04 00:26:00,
2013-02-03 19:29:00,39.2,-7.6,28.03,NW,315,4.6,4.6,13,0.00,CLR,SKC,0.19,WeatherDisplay:10.37,2013-02-04 00:29:00,
2013-02-03 19:30:00,39.0,-9.4,28.03,North,0,3.5,3.5,12,0.00,CLR,SKC,0.19,WeatherDisplay:10.37,2013-02-04 00:30:00,
2013-02-03 19:31:00,39.0,-6.3,28.02,North,0,5.8,5.8,14,0.00,CLR,SKC,0.19,WeatherDisplay:10.37,2013-02-04 00:31:00,
2013-02-03 19:32:00,39.0,-9.4,28.03,North,0,8.1,8.1,12,0.00,CLR,SKC,0.19,WeatherDisplay:10.37,2013-02-04 00:32:00,
2013-02-03 19:34:00,39.2,-9.3,28.03,North,0,9.2,9.2,12,0.00,CLR,SKC,0.19,WeatherDisplay:10.37,2013-02-04 00:34:00,
2013-02-03 19:35:00,39.2,-6.1,28.04,North,0,5.8,5.8,14,0.00,CLR,SKC,0.19,WeatherDisplay:10.37,2013-02-04 00:35:00,
2013-02-03 19:36:00,39.2,-7.6,28.04,NE,45,5.8,5.8,13,0.00,CLR,SKC,0.19,WeatherDisplay:10.37,2013-02-04 00:36:00,
2013-02-03 19:37:00,39.2,-9.3,28.03,NE,45,3.5,3.5,12,0.00,CLR,SKC,0.19,WeatherDisplay:10.37,2013-02-04 00:37:00,
2013-02-03 19:39:00,39.2,-11.0,28.03,North,0,10.4,10.4,11,0.00,CLR,SKC,0.19,WeatherDisplay:10.37,2013-02-04 00:39:00,
2013-02-03 19:40:00,39.4,-10.9,28.03,NW,315,10.4,10.4,11,0.00,CLR,SKC,0.19,WeatherDisplay:10.37,2013-02-04 00:40:00,
2013-02-03 19:41:00,39.6,-12.7,28.03,North,0,9.2,9.2,10,0.00,CLR,SKC,0.19,WeatherDisplay:10.37,2013-02-04 00:41:00,
2013-02-03 19:42:00,39.6,-12.7,28.03,North,0,9.2,9.2,10,0.00,CLR,SKC,0.19,WeatherDisplay:10.37,2013-02-04 00:42:00,
2013-02-03 19:44:00,39.4,-12.8,28.03,NW,315,8.1,8.1,10,0.00,CLR,SKC,0.19,WeatherDisplay:10.37,2013-02-04 00:44:00,
2013-02-03 19:45:00,39.7,-12.5,28.04,North,0,4.6,4.6,10,0.00,CLR,SKC,0.19,WeatherDisplay:10.37,2013-02-04 00:45:00,
2013-02-03 19:46:00,39.7,-12.5,28.04,NE,45,3.5,3.5,10,0.00,CLR,SKC,0.19,WeatherDisplay:10.37,2013-02-04 00:46:00,
2013-02-03 19:47:00,39.7,-12.5,28.04,North,0,9.2,9.2,10,0.00,CLR,SKC,0.19,WeatherDisplay:10.37,2013-02-04 00:47:00,
2013-02-03 19:49:00,39.7,-12.5,28.04,North,0,6.9,6.9,10,0.00,CLR,SKC,0.19,WeatherDisplay:10.37,2013-02-04 00:49:00,
2013-02-03 19:51:00,39.6,-9.0,28.04,NNW,338,5.8,5.8,12,0.00,CLR,SKC,0.19,WeatherDisplay:10.37,2013-02-04 00:51:00,
2013-02-03 19:52:00,39.4,-10.9,28.04,North,0,5.8,5.8,11,0.00,CLR,SKC,0.19,WeatherDisplay:10.37,2013-02-04 00:52:00,
2013-02-03 19:54:00,39.2,-9.3,28.04,NE,45,5.8,5.8,12,0.00,CLR,SKC,0.19,WeatherDisplay:10.37,2013-02-04 00:54:00,
2013-02-03 19:56:00,39.0,-9.4,28.04,North,0,3.5,3.5,12,0.00,CLR,SKC,0.19,WeatherDisplay:10.37,2013-02-04 00:56:00,
2013-02-03 19:57:00,39.2,-11.0,28.05,NNW,338,5.8,5.8,11,0.00,CLR,SKC,0.19,WeatherDisplay:10.37,2013-02-04 00:57:00,
2013-02-03 19:59:00,39.2,-9.3,28.05,NE,45,4.6,4.6,12,0.00,CLR,SKC,0.19,WeatherDisplay:10.37,2013-02-04 00:59:00,
2013-02-03 20:01:00,39.2,-9.3,28.05,NE,45,3.5,0.0,12,0.00,CLR,SKC,0.19,WeatherDisplay:10.37,2013-02-04 01:01:00,
2013-02-03 20:02:00,39.2,-9.3,28.05,NE,45,1.6,0.0,12,0.00,CLR,SKC,0.19,WeatherDisplay:10.37,2013-02-04 01:02:00,
2013-02-03 20:03:00,39.2,-9.3,28.05,NE,45,1.1,0.0,12,0.00,CLR,SKC,0.19,WeatherDisplay:10.37,2013-02-04 01:03:00,
2013-02-03 20:04:00,39.2,-9.3,28.05,NE,45,1.1,0.0,12,0.00,CLR,SKC,0.19,WeatherDisplay:10.37,2013-02-04 01:04:00,
2013-02-03 20:06:00,39.2,-9.3,28.05,NE,45,1.1,0.0,12,0.00,CLR,SKC,0.19,WeatherDisplay:10.37,2013-02-04 01:06:00,
2013-02-03 20:07:00,39.2,-9.3,28.05,NE,45,1.1,0.0,12,0.00,CLR,SKC,0.19,WeatherDisplay:10.37,2013-02-04 01:07:00,
2013-02-03 20:08:00,38.3,-6.8,28.05,NNW,338,3.5,3.5,14,0.00,CLR,SKC,0.19,WeatherDisplay:10.37,2013-02-04 01:08:00,
2013-02-03 20:09:00,38.3,-2.8,28.05,SW,225,3.5,0.0,17,0.00,CLR,SKC,0.19,WeatherDisplay:10.37,2013-02-04 01:09:00,
2013-02-03 20:11:00,37.8,-4.5,28.05,SW,225,1.1,0.0,16,0.00,CLR,SKC,0.19,WeatherDisplay:10.37,2013-02-04 01:11:00,
2013-02-03 20:12:00,37.8,-4.5,28.05,West,270,0.0,0.7,16,0.00,CLR,SKC,0.19,WeatherDisplay:10.37,2013-02-04 01:12:00,
2013-02-03 20:13:00,37.6,-4.7,28.04,North,0,3.5,3.5,16,0.00,CLR,SKC,0.19,WeatherDisplay:10.37,2013-02-04 01:13:00,
2013-02-03 20:15:00,37.4,-3.5,28.05,NW,315,3.5,3.5,17,0.00,CLR,SKC,0.19,WeatherDisplay:10.37,2013-02-04 01:15:00,
2013-02-03 20:16:00,37.4,-2.3,28.05,North,0,4.6,4.6,18,0.00,CLR,SKC,0.19,WeatherDisplay:10.37,2013-02-04 01:16:00,
2013-02-03 20:17:00,37.4,-4.8,28.05,North,0,4.6,4.6,16,0.00,CLR,SKC,0.19,WeatherDisplay:10.37,2013-02-04 01:17:00,
2013-02-03 20:18:00,37.4,-2.3,28.04,North,0,5.8,5.8,18,0.00,CLR,SKC,0.19,WeatherDisplay:10.37,2013-02-04 01:18:00,
2013-02-03 20:20:00,37.4,-3.5,28.05,North,0,3.5,0.0,17,0.00,CLR,SKC,0.19,WeatherDisplay:10.37,2013-02-04 01:20:00,
2013-02-03 20:21:00,37.4,-1.2,28.05,West,270,3.5,0.0,19,0.00,CLR,SKC,0.19,WeatherDisplay:10.37,2013-02-04 01:21:00,
2013-02-03 20:23:00,37.2,-0.2,28.05,West,270,2.3,0.0,20,0.00,CLR,SKC,0.19,WeatherDisplay:10.37,2013-02-04 01:23:00,
2013-02-03 20:25:00,37.0,0.6,28.05,NW,315,1.1,0.0,21,0.00,CLR,SKC,0.19,WeatherDisplay:10.37,2013-02-04 01:25:00,
2013-02-03 20:26:00,36.7,1.3,28.05,North,0,1.1,0.0,22,0.00,CLR,SKC,0.19,WeatherDisplay:10.37,2013-02-04 01:26:00,
2013-02-03 20:28:00,36.3,1.0,28.04,NE,45,0.0,0.0,22,0.00,CLR,SKC,0.19,WeatherDisplay:10.37,2013-02-04 01:28:00,
2013-02-03 20:30:00,35.6,2.3,28.05,ENE,68,2.3,0.0,24,0.00,CLR,SKC,0.19,WeatherDisplay:10.37,2013-02-04 01:30:00,
2013-02-03 20:32:00,35.4,3.9,28.05,East,90,0.0,0.0,26,0.00,CLR,SKC,0.19,WeatherDisplay:10.37,2013-02-04 01:32:00,
2013-02-03 20:33:00,35.1,5.2,28.05,North,0,0.0,0.0,28,0.00,CLR,SKC,0.19,WeatherDisplay:10.37,2013-02-04 01:33:00,
2013-02-03 20:35:00,34.7,4.9,28.05,North,0,1.1,0.0,28,0.00,CLR,SKC,0.19,WeatherDisplay:10.37,2013-02-04 01:35:00,
2013-02-03 20:37:00,34.5,3.9,28.05,NE,45,2.3,0.0,27,0.00,CLR,SKC,0.19,WeatherDisplay:10.37,2013-02-04 01:37:00,
2013-02-03 20:38:00,34.5,3.9,28.04,NE,45,2.3,0.0,27,0.00,CLR,SKC,0.19,WeatherDisplay:10.37,2013-02-04 01:38:00,
2013-02-03 20:39:00,34.5,3.9,28.04,NE,45,0.0,0.0,27,0.00,CLR,SKC,0.19,WeatherDisplay:10.37,2013-02-04 01:39:00,
2013-02-03 20:40:00,34.3,4.5,28.05,NE,45,0.0,0.0,28,0.00,CLR,SKC,0.19,WeatherDisplay:10.37,2013-02-04 01:40:00,
2013-02-03 20:42:00,34.3,4.5,28.05,NNW,338,2.3,0.0,28,0.00,CLR,SKC,0.19,WeatherDisplay:10.37,2013-02-04 01:42:00,
2013-02-03 20:43:00,34.2,5.9,28.05,North,0,2.3,0.0,30,0.00,CLR,SKC,0.19,WeatherDisplay:10.37,2013-02-04 01:43:00,
2013-02-03 20:44:00,34.0,5.7,28.04,North,0,2.3,0.0,30,0.00,CLR,SKC,0.19,WeatherDisplay:10.37,2013-02-04 01:44:00,
2013-02-03 20:45:00,33.8,6.3,28.05,North,0,2.3,0.0,31,0.00,CLR,SKC,0.19,WeatherDisplay:10.37,2013-02-04 01:45:00,
2013-02-03 20:47:00,33.6,6.1,28.04,North,0,0.0,0.0,31,0.00,CLR,SKC,0.19,WeatherDisplay:10.37,2013-02-04 01:47:00,
2013-02-03 20:48:00,33.4,6.0,28.05,North,0,0.0,0.0,31,0.00,CLR,SKC,0.19,WeatherDisplay:10.37,2013-02-04 01:48:00,
2013-02-03 20:50:00,33.4,6.0,28.05,North,0,0.0,0.0,31,0.00,CLR,SKC,0.19,WeatherDisplay:10.37,2013-02-04 01:50:00,
2013-02-03 20:51:00,33.3,5.1,28.05,South,180,0.0,0.0,30,0.00,CLR,SKC,0.19,WeatherDisplay:10.37,2013-02-04 01:51:00,
2013-02-03 20:52:00,33.3,6.5,28.05,NW,315,0.0,0.0,32,0.00,CLR,SKC,0.19,WeatherDisplay:10.37,2013-02-04 01:52:00,
2013-02-03 20:54:00,33.3,6.5,28.05,NE,45,0.0,0.0,32,0.00,CLR,SKC,0.19,WeatherDisplay:10.37,2013-02-04 01:54:00,
2013-02-03 20:55:00,33.1,7.1,28.04,NE,45,1.1,0.0,33,0.00,CLR,SKC,0.19,WeatherDisplay:10.37,2013-02-04 01:55:00,
2013-02-03 20:56:00,33.1,7.1,28.05,NE,45,0.0,0.0,33,0.00,CLR,SKC,0.19,WeatherDisplay:10.37,2013-02-04 01:56:00,
2013-02-03 20:57:00,32.7,6.7,28.05,NE,45,0.0,0.0,33,0.00,CLR,SKC,0.19,WeatherDisplay:10.37,2013-02-04 01:57:00,
2013-02-03 20:59:00,32.7,6.7,28.05,NE,45,0.0,0.0,33,0.00,CLR,SKC,0.19,WeatherDisplay:10.37,2013-02-04 01:59:00,
2013-02-03 21:00:00,32.7,6.7,28.04,NE,45,0.0,0.0,33,0.00,CLR,SKC,0.19,WeatherDisplay:10.37,2013-02-04 02:00:00,
2013-02-03 21:01:00,32.7,6.7,28.05,NE,45,0.0,0.0,33,0.00,CLR,SKC,0.19,WeatherDisplay:10.37,2013-02-04 02:01:00,
2013-02-03 21:02:00,32.7,6.7,28.05,NE,45,0.0,0.0,33,0.00,CLR,SKC,0.19,WeatherDisplay:10.37,2013-02-04 02:02:00,
2013-02-03 21:04:00,32.7,6.7,28.05,NE,45,0.0,0.0,33,0.00,CLR,SKC,0.19,WeatherDisplay:10.37,2013-02-04 02:04:00,
2013-02-03 21:05:00,32.7,6.7,28.05,NE,45,0.0,0.0,33,0.00,CLR,SKC,0.19,WeatherDisplay:10.37,2013-02-04 02:05:00,
2013-02-03 21:06:00,32.7,6.7,28.05,NE,45,0.0,0.0,33,0.00,CLR,SKC,0.19,WeatherDisplay:10.37,2013-02-04 02:06:00,
2013-02-03 21:08:00,32.2,6.3,28.05,South,180,0.0,0.0,33,0.00,CLR,SKC,0.19,WeatherDisplay:10.37,2013-02-04 02:08:00,
2013-02-03 21:09:00,32.2,7.6,28.05,South,180,0.0,0.0,35,0.00,CLR,SKC,0.19,WeatherDisplay:10.37,2013-02-04 02:09:00,
2013-02-03 21:10:00,32.0,8.0,28.05,South,180,0.0,0.0,36,0.00,CLR,SKC,0.19,WeatherDisplay:10.37,2013-02-04 02:10:00,
2013-02-03 21:11:00,32.0,7.4,28.05,South,180,0.0,0.0,35,0.00,CLR,SKC,0.19,WeatherDisplay:10.37,2013-02-04 02:11:00,
2013-02-03 21:13:00,31.8,7.2,28.05,South,180,0.0,0.0,35,0.00,CLR,SKC,0.19,WeatherDisplay:10.37,2013-02-04 02:13:00,
2013-02-03 21:14:00,31.8,7.2,28.05,South,180,0.0,0.0,35,0.00,CLR,SKC,0.19,WeatherDisplay:10.37,2013-02-04 02:14:00,
2013-02-03 21:15:00,31.6,8.9,28.05,NE,45,0.0,0.0,38,0.00,CLR,SKC,0.19,WeatherDisplay:10.37,2013-02-04 02:15:00,
2013-02-03 21:16:00,31.6,8.9,28.05,NE,45,0.0,0.0,38,0.00,CLR,SKC,0.19,WeatherDisplay:10.37,2013-02-04 02:16:00,
2013-02-03 21:18:00,31.5,8.1,28.05,NE,45,0.0,0.0,37,0.00,CLR,SKC,0.19,WeatherDisplay:10.37,2013-02-04 02:18:00,
2013-02-03 21:19:00,31.5,7.5,28.05,NE,45,0.0,0.0,36,0.00,CLR,SKC,0.19,WeatherDisplay:10.37,2013-02-04 02:19:00,
2013-02-03 21:20:00,31.5,8.7,28.05,NE,45,0.0,0.0,38,0.00,CLR,SKC,0.19,WeatherDisplay:10.37,2013-02-04 02:20:00,
2013-02-03 21:21:00,31.3,9.7,28.05,NE,45,0.0,0.0,40,0.00,CLR,SKC,0.19,WeatherDisplay:10.37,2013-02-04 02:21:00,
2013-02-03 21:23:00,31.1,9.6,28.04,NE,45,1.1,0.0,40,0.00,CLR,SKC,0.19,WeatherDisplay:10.37,2013-02-04 02:23:00,
2013-02-03 21:25:00,31.1,9.6,28.05,NE,45,0.0,0.0,40,0.00,CLR,SKC,0.19,WeatherDisplay:10.37,2013-02-04 02:25:00,
2013-02-03 21:26:00,31.1,9.6,28.04,NE,45,0.0,0.0,40,0.00,CLR,SKC,0.19,WeatherDisplay:10.37,2013-02-04 02:26:00,
2013-02-03 21:27:00,30.9,9.4,28.04,NE,45,0.0,0.0,40,0.00,CLR,SKC,0.19,WeatherDisplay:10.37,2013-02-04 02:27:00,
2013-02-03 21:28:00,30.7,9.8,28.04,NE,45,0.0,0.0,41,0.00,CLR,SKC,0.19,WeatherDisplay:10.37,2013-02-04 02:28:00,
2013-02-03 21:30:00,30.7,9.8,28.04,NE,45,0.0,0.0,41,0.00,CLR,SKC,0.19,WeatherDisplay:10.37,2013-02-04 02:30:00,
2013-02-03 21:31:00,30.7,10.3,28.05,NE,45,0.0,0.0,42,0.00,CLR,SKC,0.19,WeatherDisplay:10.37,2013-02-04 02:31:00,
2013-02-03 21:32:00,30.7,10.3,28.05,NE,45,1.1,1.1,42,0.00,CLR,SKC,0.19,WeatherDisplay:10.37,2013-02-04 02:32:00,
2013-02-03 21:33:00,30.7,10.3,28.05,NE,45,1.1,0.0,42,0.00,CLR,SKC,0.19,WeatherDisplay:10.37,2013-02-04 02:33:00,
2013-02-03 21:35:00,30.6,10.2,28.05,NE,45,1.1,0.0,42,0.00,CLR,SKC,0.19,WeatherDisplay:10.37,2013-02-04 02:35:00,
2013-02-03 21:36:00,30.6,10.7,28.04,NE,45,1.1,0.0,43,0.00,CLR,SKC,0.19,WeatherDisplay:10.37,2013-02-04 02:36:00,
2013-02-03 21:37:00,30.6,10.7,28.04,NE,45,1.1,0.0,43,0.00,CLR,SKC,0.19,WeatherDisplay:10.37,2013-02-04 02:37:00,
2013-02-03 21:38:00,30.6,10.7,28.05,North,0,0.0,0.0,43,0.00,CLR,SKC,0.19,WeatherDisplay:10.37,2013-02-04 02:38:00,
2013-02-03 21:40:00,30.6,11.2,28.05,South,180,2.3,0.0,44,0.00,CLR,SKC,0.19,WeatherDisplay:10.37,2013-02-04 02:40:00,
2013-02-03 21:41:00,30.6,11.2,28.05,NE,45,2.3,0.0,44,0.00,CLR,SKC,0.19,WeatherDisplay:10.37,2013-02-04 02:41:00,
2013-02-03 21:42:00,30.6,11.2,28.05,NW,315,1.1,0.0,44,0.00,CLR,SKC,0.19,WeatherDisplay:10.37,2013-02-04 02:42:00,
2013-02-03 21:43:00,30.6,11.2,28.05,NW,315,1.1,0.0,44,0.00,CLR,SKC,0.19,WeatherDisplay:10.37,2013-02-04 02:43:00,
2013-02-03 21:45:00,30.6,11.7,28.04,North,0,1.1,0.0,45,0.00,CLR,SKC,0.19,WeatherDisplay:10.37,2013-02-04 02:45:00,
2013-02-03 21:47:00,30.4,11.5,28.05,North,0,0.0,0.0,45,0.00,CLR,SKC,0.19,WeatherDisplay:10.37,2013-02-04 02:47:00,
2013-02-03 21:48:00,30.4,11.5,28.05,North,0,0.0,0.0,45,0.00,CLR,SKC,0.19,WeatherDisplay:10.37,2013-02-04 02:48:00,
2013-02-03 21:50:00,30.6,11.7,28.05,North,0,0.0,0.0,45,0.00,CLR,SKC,0.19,WeatherDisplay:10.37,2013-02-04 02:50:00,
2013-02-03 21:52:00,29.3,10.6,28.05,North,0,0.0,0.0,45,0.00,CLR,SKC,0.19,WeatherDisplay:10.37,2013-02-04 02:52:00,
2013-02-03 21:53:00,30.9,12.0,28.05,North,0,0.0,0.0,45,0.00,CLR,SKC,0.19,WeatherDisplay:10.37,2013-02-04 02:53:00,
2013-02-03 21:54:00,30.0,11.2,28.05,North,0,0.0,0.0,45,0.00,CLR,SKC,0.19,WeatherDisplay:10.37,2013-02-04 02:54:00,
2013-02-03 21:55:00,30.2,11.4,28.05,North,0,0.0,0.0,45,0.00,CLR,SKC,0.19,WeatherDisplay:10.37,2013-02-04 02:55:00,
2013-02-03 21:57:00,30.9,12.0,28.05,North,0,0.0,0.0,45,0.00,CLR,SKC,0.19,WeatherDisplay:10.37,2013-02-04 02:57:00,
2013-02-03 21:58:00,30.2,11.4,28.05,North,0,0.0,0.0,45,0.00,CLR,SKC,0.19,WeatherDisplay:10.37,2013-02-04 02:58:00,
2013-02-03 21:59:00,30.2,11.4,28.05,North,0,0.0,0.0,45,0.00,CLR,SKC,0.19,WeatherDisplay:10.37,2013-02-04 02:59:00,
2013-02-03 22:00:00,30.2,11.4,28.05,North,0,0.0,0.0,45,0.00,CLR,SKC,0.19,WeatherDisplay:10.37,2013-02-04 03:00:00,
2013-02-03 22:02:00,30.2,11.4,28.05,North,0,0.0,0.0,45,0.00,CLR,SKC,0.19,WeatherDisplay:10.37,2013-02-04 03:02:00,
2013-02-03 22:03:00,30.2,11.4,28.05,North,0,0.0,0.0,45,0.00,CLR,SKC,0.19,WeatherDisplay:10.37,2013-02-04 03:03:00,
2013-02-03 22:04:00,30.2,11.4,28.05,North,0,0.0,0.0,45,0.00,CLR,SKC,0.19,WeatherDisplay:10.37,2013-02-04 03:04:00,
2013-02-03 22:05:00,30.2,11.4,28.05,North,0,0.0,0.0,45,0.00,CLR,SKC,0.19,WeatherDisplay:10.37,2013-02-04 03:05:00,
2013-02-03 22:07:00,30.2,11.4,28.05,North,0,0.0,0.0,45,0.00,CLR,SKC,0.19,WeatherDisplay:10.37,2013-02-04 03:07:00,
2013-02-03 22:08:00,30.2,11.4,28.05,NW,315,1.1,0.0,45,0.00,CLR,SKC,0.19,WeatherDisplay:10.37,2013-02-04 03:08:00,
2013-02-03 22:09:00,30.2,11.4,28.05,NW,315,1.1,0.0,45,0.00,CLR,SKC,0.19,WeatherDisplay:10.37,2013-02-04 03:09:00,
2013-02-03 22:11:00,30.2,11.9,28.05,North,0,0.0,0.0,46,0.00,CLR,SKC,0.19,WeatherDisplay:10.37,2013-02-04 03:11:00,
2013-02-03 22:12:00,30.4,12.0,28.06,North,0,0.0,0.0,46,0.00,CLR,SKC,0.19,WeatherDisplay:10.37,2013-02-04 03:12:00,
2013-02-03 22:13:00,30.6,11.7,28.06,NW,315,1.1,1.1,45,0.00,CLR,SKC,0.19,WeatherDisplay:10.37,2013-02-04 03:13:00,
2013-02-03 22:14:00,30.7,11.9,28.06,NW,315,3.5,0.0,45,0.00,CLR,SKC,0.19,WeatherDisplay:10.37,2013-02-04 03:14:00,
2013-02-03 22:16:00,30.9,12.0,28.06,NE,45,1.1,0.0,45,0.00,CLR,SKC,0.19,WeatherDisplay:10.37,2013-02-04 03:16:00,
2013-02-03 22:17:00,31.1,11.7,28.06,NW,315,1.1,0.0,44,0.00,CLR,SKC,0.19,WeatherDisplay:10.37,2013-02-04 03:17:00,
2013-02-03 22:18:00,31.1,12.2,28.05,NW,315,0.0,0.0,45,0.00,CLR,SKC,0.19,WeatherDisplay:10.37,2013-02-04 03:18:00,
2013-02-03 22:19:00,31.1,12.2,28.05,NW,315,0.0,0.0,45,0.00,CLR,SKC,0.19,WeatherDisplay:10.37,2013-02-04 03:19:00,
2013-02-03 22:21:00,30.9,12.5,28.06,North,0,1.1,0.0,46,0.00,CLR,SKC,0.19,WeatherDisplay:10.37,2013-02-04 03:21:00,
2013-02-03 22:23:00,30.7,12.4,28.05,NW,315,2.3,2.3,46,0.00,CLR,SKC,0.19,WeatherDisplay:10.37,2013-02-04 03:23:00,
2013-02-03 22:24:00,30.9,12.0,28.05,North,0,3.5,3.5,45,0.00,CLR,SKC,0.19,WeatherDisplay:10.37,2013-02-04 03:24:00,
2013-02-03 22:26:00,31.1,12.2,28.05,North,0,4.6,4.6,45,0.00,CLR,SKC,0.19,WeatherDisplay:10.37,2013-02-04 03:26:00,
2013-02-03 22:28:00,31.5,11.5,28.05,NW,315,5.8,5.8,43,0.00,CLR,SKC,0.19,WeatherDisplay:10.37,2013-02-04 03:28:00,
2013-02-03 22:29:00,31.6,11.1,28.05,North,0,4.6,4.6,42,0.00,CLR,SKC,0.19,WeatherDisplay:10.37,2013-02-04 03:29:00,
2013-02-03 22:31:00,32.0,10.4,28.05,North,0,4.6,4.6,40,0.00,CLR,SKC,0.19,WeatherDisplay:10.37,2013-02-04 03:31:00,
2013-02-03 22:33:00,32.4,10.1,28.05,North,0,3.8,3.8,39,0.00,CLR,SKC,0.19,WeatherDisplay:10.37,2013-02-04 03:33:00,
2013-02-03 22:34:00,32.4,10.7,28.04,North,0,3.5,3.5,40,0.00,CLR,SKC,0.19,WeatherDisplay:10.37,2013-02-04 03:34:00,
2013-02-03 22:36:00,32.4,10.1,28.05,NE,45,3.5,3.5,39,0.00,CLR,SKC,0.19,WeatherDisplay:10.37,2013-02-04 03:36:00,
2013-02-03 22:39:00,32.4,10.7,28.05,North,0,5.8,5.8,40,0.00,CLR,SKC,0.19,WeatherDisplay:10.37,2013-02-04 03:39:00,
2013-02-03 22:40:00,32.4,9.5,28.04,North,0,6.9,6.9,38,0.00,CLR,SKC,0.19,WeatherDisplay:10.37,2013-02-04 03:40:00,
2013-02-03 22:41:00,32.7,9.3,28.04,North,0,6.9,6.9,37,0.00,CLR,SKC,0.19,WeatherDisplay:10.37,2013-02-04 03:41:00,
2013-02-03 22:44:00,32.9,8.2,28.04,North,0,4.6,4.6,35,0.00,CLR,SKC,0.19,WeatherDisplay:10.37,2013-02-04 03:44:00,
2013-02-03 22:45:00,33.1,8.4,28.04,NE,45,2.3,2.3,35,0.00,CLR,SKC,0.19,WeatherDisplay:10.37,2013-02-04 03:45:00,
2013-02-03 22:47:00,33.3,8.5,28.04,North,0,2.3,2.3,35,0.00,CLR,SKC,0.19,WeatherDisplay:10.37,2013-02-04 03:47:00,
2013-02-03 22:49:00,33.3,7.2,28.04,North,0,5.8,5.8,33,0.00,CLR,SKC,0.19,WeatherDisplay:10.37,2013-02-04 03:49:00,
2013-02-03 22:50:00,33.3,7.2,28.04,North,0,5.8,5.8,33,0.00,CLR,SKC,0.19,WeatherDisplay:10.37,2013-02-04 03:50:00,
2013-02-03 22:52:00,33.1,7.7,28.04,North,0,4.6,4.6,34,0.00,CLR,SKC,0.19,WeatherDisplay:10.37,2013-02-04 03:52:00,
2013-02-03 22:54:00,33.1,7.7,28.04,North,0,5.8,5.8,34,0.00,CLR,SKC,0.19,WeatherDisplay:10.37,2013-02-04 03:54:00,
2013-02-03 22:55:00,33.1,7.1,28.04,North,0,5.8,5.8,33,0.00,CLR,SKC,0.19,WeatherDisplay:10.37,2013-02-04 03:55:00,
2013-02-03 22:58:00,33.1,7.1,28.04,North,0,5.8,5.8,33,0.00,CLR,SKC,0.19,WeatherDisplay:10.37,2013-02-04 03:58:00,
2013-02-03 22:59:00,33.1,7.7,28.04,North,0,3.5,3.5,34,0.00,CLR,SKC,0.19,WeatherDisplay:10.37,2013-02-04 03:59:00,
2013-02-03 23:00:00,33.1,7.7,28.04,North,0,3.8,3.8,34,0.00,CLR,SKC,0.19,WeatherDisplay:10.37,2013-02-04 04:00:00,
2013-02-03 23:03:00,33.1,7.7,28.05,North,0,3.5,3.5,34,0.00,CLR,SKC,0.19,WeatherDisplay:10.37,2013-02-04 04:03:00,
2013-02-03 23:05:00,33.1,7.7,28.05,North,0,3.5,3.5,34,0.00,CLR,SKC,0.19,WeatherDisplay:10.37,2013-02-04 04:05:00,
2013-02-03 23:08:00,32.4,7.7,28.05,North,0,3.5,0.0,35,0.00,CLR,SKC,0.19,WeatherDisplay:10.37,2013-02-04 04:08:00,
2013-02-03 23:10:00,32.4,7.7,28.05,NE,45,2.3,2.3,35,0.00,CLR,SKC,0.19,WeatherDisplay:10.37,2013-02-04 04:10:00,
2013-02-03 23:13:00,32.2,8.8,28.06,North,0,3.5,3.5,37,0.00,CLR,SKC,0.19,WeatherDisplay:10.37,2013-02-04 04:13:00,
2013-02-03 23:15:00,32.0,8.0,28.06,NE,45,3.5,0.0,36,0.00,CLR,SKC,0.19,WeatherDisplay:10.37,2013-02-04 04:15:00,
2013-02-03 23:16:00,32.0,8.0,28.05,NE,45,1.1,0.0,36,0.00,CLR,SKC,0.19,WeatherDisplay:10.37,2013-02-04 04:16:00,
2013-02-03 23:18:00,32.0,8.6,28.06,North,0,2.3,0.0,37,0.00,CLR,SKC,0.19,WeatherDisplay:10.37,2013-02-04 04:18:00,
2013-02-03 23:20:00,31.6,8.9,28.06,North,0,2.3,2.3,38,0.00,CLR,SKC,0.19,WeatherDisplay:10.37,2013-02-04 04:20:00,
2013-02-03 23:21:00,31.6,9.5,28.06,North,0,3.5,3.5,39,0.00,CLR,SKC,0.19,WeatherDisplay:10.37,2013-02-04 04:21:00,
2013-02-03 23:23:00,31.3,9.2,28.05,North,0,2.3,2.3,39,0.00,CLR,SKC,0.19,WeatherDisplay:10.37,2013-02-04 04:23:00,
2013-02-03 23:25:00,31.3,9.2,28.05,NE,45,2.3,0.0,39,0.00,CLR,SKC,0.19,WeatherDisplay:10.37,2013-02-04 04:25:00,
2013-02-03 23:26:00,31.3,9.2,28.05,North,0,1.1,1.1,39,0.00,CLR,SKC,0.19,WeatherDisplay:10.37,2013-02-04 04:26:00,
2013-02-03 23:28:00,31.1,9.0,28.05,North,0,1.1,0.0,39,0.00,CLR,SKC,0.19,WeatherDisplay:10.37,2013-02-04 04:28:00,
2013-02-03 23:30:00,31.1,9.0,28.05,North,0,2.3,2.3,39,0.00,CLR,SKC,0.19,WeatherDisplay:10.37,2013-02-04 04:30:00,
2013-02-03 23:31:00,31.1,9.0,28.05,NE,45,2.3,0.0,39,0.00,CLR,SKC,0.19,WeatherDisplay:10.37,2013-02-04 04:31:00,
2013-02-03 23:33:00,31.3,9.2,28.05,NE,45,1.1,0.0,39,0.00,CLR,SKC,0.19,WeatherDisplay:10.37,2013-02-04 04:33:00,
2013-02-03 23:35:00,31.3,8.6,28.05,WNW,292,1.1,1.1,38,0.00,CLR,SKC,0.19,WeatherDisplay:10.37,2013-02-04 04:35:00,
2013-02-03 23:36:00,31.3,9.2,28.05,North,0,2.3,2.3,39,0.00,CLR,SKC,0.19,WeatherDisplay:10.37,2013-02-04 04:36:00,
2013-02-03 23:39:00,31.1,9.0,28.05,NE,45,3.5,0.0,39,0.00,CLR,SKC,0.19,WeatherDisplay:10.37,2013-02-04 04:39:00,
2013-02-03 23:40:00,30.9,9.4,28.05,North,0,2.3,2.3,40,0.00,CLR,SKC,0.19,WeatherDisplay:10.37,2013-02-04 04:40:00,
2013-02-03 23:41:00,30.9,9.4,28.05,North,0,2.3,2.3,40,0.00,CLR,SKC,0.19,WeatherDisplay:10.37,2013-02-04 04:41:00,
2013-02-03 23:44:00,30.7,9.2,28.05,North,0,0.0,0.0,40,0.00,CLR,SKC,0.19,WeatherDisplay:10.37,2013-02-04 04:44:00,
2013-02-03 23:46:00,30.7,8.7,28.05,North,0,0.0,0.0,39,0.00,CLR,SKC,0.19,WeatherDisplay:10.37,2013-02-04 04:46:00,
2013-02-03 23:49:00,30.7,9.2,28.05,North,0,2.3,2.3,40,0.00,CLR,SKC,0.19,WeatherDisplay:10.37,2013-02-04 04:49:00,
2013-02-03 23:51:00,30.4,10.0,28.05,North,0,2.3,0.0,42,0.00,CLR,SKC,0.19,WeatherDisplay:10.37,2013-02-04 04:51:00,
2013-02-03 23:52:00,30.4,10.0,28.05,North,0,2.3,0.0,42,0.00,CLR,SKC,0.19,WeatherDisplay:10.37,2013-02-04 04:52:00,
2013-02-03 23:54:00,30.2,9.8,28.05,North,0,1.1,0.0,42,0.00,CLR,SKC,0.19,WeatherDisplay:10.37,2013-02-04 04:54:00,
2013-02-03 23:56:00,30.2,9.3,28.05,North,0,2.3,0.0,41,0.00,CLR,SKC,0.19,WeatherDisplay:10.37,2013-02-04 04:56:00,
2013-02-03 23:57:00,30.2,9.3,28.05,North,0,0.0,0.0,41,0.00,CLR,SKC,0.19,WeatherDisplay:10.37,2013-02-04 04:57:00,
2013-02-03 23:59:00,30.4,9.5,28.05,North,0,0.0,0.0,41,0.00,CLR,SKC,0.19,WeatherDisplay:10.37,2013-02-04 04:59:00,